<?xml version='1.0' encoding='UTF-8'?><gpx version="1.1" creator="JPX - https://github.com/jenetics/jpx" xmlns="http://www.topografix.com/GPX/1/1"><trk><trkseg><trkpt lat="41.1984098" lon="1.0607678"><ele>355.7142857142857</ele><time>2026-04-12T12:02:10.959Z</time></trkpt><trkpt lat="41.1984316" lon="1.0608569"><ele>356.42857142857144</ele><time>2026-04-12T12:02:15.959Z</time></trkpt><trkpt lat="41.1984363" lon="1.0609523"><ele>357.1428571428571</ele><time>2026-04-12T12:02:20.96Z</time></trkpt><trkpt lat="41.1984318" lon="1.0610515"><ele>357.8571428571429</ele><time>2026-04-12T12:02:24.959Z</time></trkpt><trkpt lat="41.1984281" lon="1.0611387"><ele>358.5714285714286</ele><time>2026-04-12T12:02:28.96Z</time></trkpt><trkpt lat="41.1984347" lon="1.0612345"><ele>359.2857142857143</ele><time>2026-04-12T12:02:32.96Z</time></trkpt><trkpt lat="41.1984375" lon="1.0613294"><ele>360.0</ele><time>2026-04-12T12:02:37.959Z</time></trkpt><trkpt lat="41.1984493" lon="1.0614172"><ele>360.0</ele><time>2026-04-12T12:02:41.96Z</time></trkpt><trkpt lat="41.1984585" lon="1.0615191"><ele>360.0</ele><time>2026-04-12T12:02:45.96Z</time></trkpt><trkpt lat="41.1984664" lon="1.0616066"><ele>360.0</ele><time>2026-04-12T12:02:49.96Z</time></trkpt><trkpt lat="41.1984854" lon="1.0616904"><ele>360.0</ele><time>2026-04-12T12:02:53.958Z</time></trkpt><trkpt lat="41.198513" lon="1.0617668"><ele>360.0</ele><time>2026-04-12T12:02:57.959Z</time></trkpt><trkpt lat="41.1985461" lon="1.06188"><ele>360.0</ele><time>2026-04-12T12:03:00.959Z</time></trkpt><trkpt lat="41.1985688" lon="1.0619688"><ele>360.0</ele><time>2026-04-12T12:03:02.96Z</time></trkpt><trkpt lat="41.1985938" lon="1.0621229"><ele>360.1666666666667</ele><time>2026-04-12T12:03:04.959Z</time></trkpt><trkpt lat="41.1986155" lon="1.0622313"><ele>360.3333333333333</ele><time>2026-04-12T12:03:07.959Z</time></trkpt><trkpt lat="41.198638" lon="1.0623103"><ele>360.5</ele><time>2026-04-12T12:03:09.959Z</time></trkpt><trkpt lat="41.1986636" lon="1.0624001"><ele>360.66666666666663</ele><time>2026-04-12T12:03:11.96Z</time></trkpt><trkpt lat="41.19869" lon="1.0624931"><ele>360.8333333333333</ele><time>2026-04-12T12:03:13.96Z</time></trkpt><trkpt lat="41.1987148" lon="1.0626041"><ele>361.0</ele><time>2026-04-12T12:03:15.96Z</time></trkpt><trkpt lat="41.1987393" lon="1.0627258"><ele>361.0</ele><time>2026-04-12T12:03:17.96Z</time></trkpt><trkpt lat="41.1987702" lon="1.0628548"><ele>361.0</ele><time>2026-04-12T12:03:19.959Z</time></trkpt><trkpt lat="41.1987993" lon="1.0630117"><ele>361.0</ele><time>2026-04-12T12:03:21.959Z</time></trkpt><trkpt lat="41.1988308" lon="1.0631679"><ele>361.0</ele><time>2026-04-12T12:03:23.96Z</time></trkpt><trkpt lat="41.1988179" lon="1.0633318"><ele>360.8333333333333</ele><time>2026-04-12T12:03:25.96Z</time></trkpt><trkpt lat="41.1987536" lon="1.0634392"><ele>360.66666666666663</ele><time>2026-04-12T12:03:27.959Z</time></trkpt><trkpt lat="41.1986963" lon="1.0635247"><ele>360.5</ele><time>2026-04-12T12:03:29.96Z</time></trkpt><trkpt lat="41.198693" lon="1.0636299"><ele>360.3333333333333</ele><time>2026-04-12T12:03:32.959Z</time></trkpt><trkpt lat="41.1986976" lon="1.063733"><ele>360.1666666666667</ele><time>2026-04-12T12:03:35.96Z</time></trkpt><trkpt lat="41.198719" lon="1.0638163"><ele>360.0</ele><time>2026-04-12T12:03:40.96Z</time></trkpt><trkpt lat="41.1987111" lon="1.06393"><ele>360.0</ele><time>2026-04-12T12:03:44.96Z</time></trkpt><trkpt lat="41.1986838" lon="1.0640348"><ele>360.0</ele><time>2026-04-12T12:03:47.959Z</time></trkpt><trkpt lat="41.1986112" lon="1.0640988"><ele>360.0</ele><time>2026-04-12T12:03:50.959Z</time></trkpt><trkpt lat="41.1985417" lon="1.0641589"><ele>360.0</ele><time>2026-04-12T12:03:53.959Z</time></trkpt><trkpt lat="41.1984815" lon="1.0641901"><ele>360.0</ele><time>2026-04-12T12:03:55.96Z</time></trkpt><trkpt lat="41.198403" lon="1.0642537"><ele>360.0</ele><time>2026-04-12T12:03:58.96Z</time></trkpt><trkpt lat="41.1983333" lon="1.0642803"><ele>360.0</ele><time>2026-04-12T12:04:00.959Z</time></trkpt><trkpt lat="41.1982671" lon="1.0643081"><ele>360.0</ele><time>2026-04-12T12:04:02.96Z</time></trkpt><trkpt lat="41.1982111" lon="1.0643564"><ele>360.0</ele><time>2026-04-12T12:04:04.96Z</time></trkpt><trkpt lat="41.1981327" lon="1.0643941"><ele>360.0</ele><time>2026-04-12T12:04:07.959Z</time></trkpt><trkpt lat="41.1980643" lon="1.0644521"><ele>360.0</ele><time>2026-04-12T12:04:11.959Z</time></trkpt><trkpt lat="41.1980294" lon="1.0645267"><ele>360.0</ele><time>2026-04-12T12:04:14.96Z</time></trkpt><trkpt lat="41.1979901" lon="1.0646"><ele>360.0</ele><time>2026-04-12T12:04:17.96Z</time></trkpt><trkpt lat="41.1979945" lon="1.0646931"><ele>356.5</ele><time>2026-04-12T12:04:21.959Z</time></trkpt><trkpt lat="41.198001" lon="1.0648019"><ele>353.0</ele><time>2026-04-12T12:04:26.959Z</time></trkpt><trkpt lat="41.1979743" lon="1.0649014"><ele>349.5</ele><time>2026-04-12T12:04:29.959Z</time></trkpt><trkpt lat="41.19793" lon="1.0649713"><ele>346.0</ele><time>2026-04-12T12:04:32.959Z</time></trkpt><trkpt lat="41.1978573" lon="1.0650225"><ele>342.5</ele><time>2026-04-12T12:04:34.959Z</time></trkpt><trkpt lat="41.1977838" lon="1.0650384"><ele>339.0</ele><time>2026-04-12T12:04:36.958Z</time></trkpt><trkpt lat="41.1977013" lon="1.0650121"><ele>338.7142857142857</ele><time>2026-04-12T12:04:38.96Z</time></trkpt><trkpt lat="41.1976272" lon="1.0650107"><ele>338.42857142857144</ele><time>2026-04-12T12:04:41.96Z</time></trkpt><trkpt lat="41.1975894" lon="1.0650905"><ele>338.14285714285717</ele><time>2026-04-12T12:04:45.959Z</time></trkpt><trkpt lat="41.1975241" lon="1.065093"><ele>337.8571428571429</ele><time>2026-04-12T12:04:49.959Z</time></trkpt><trkpt lat="41.1974494" lon="1.0651265"><ele>337.57142857142856</ele><time>2026-04-12T12:04:52.96Z</time></trkpt><trkpt lat="41.1973738" lon="1.0651605"><ele>337.28571428571433</ele><time>2026-04-12T12:04:55.96Z</time></trkpt><trkpt lat="41.1973167" lon="1.0652109"><ele>337.0</ele><time>2026-04-12T12:04:57.96Z</time></trkpt><trkpt lat="41.19724" lon="1.0652181"><ele>335.66666666666663</ele><time>2026-04-12T12:05:00.96Z</time></trkpt><trkpt lat="41.197159" lon="1.0651778"><ele>334.3333333333333</ele><time>2026-04-12T12:05:02.96Z</time></trkpt><trkpt lat="41.1971179" lon="1.0650722"><ele>333.0</ele><time>2026-04-12T12:05:03.959Z</time></trkpt><trkpt lat="41.1970822" lon="1.0649924"><ele>331.6666666666667</ele><time>2026-04-12T12:05:06.959Z</time></trkpt><trkpt lat="41.1970076" lon="1.0649425"><ele>330.33333333333337</ele><time>2026-04-12T12:05:10.96Z</time></trkpt><trkpt lat="41.1969689" lon="1.0648677"><ele>329.0</ele><time>2026-04-12T12:05:13.96Z</time></trkpt><trkpt lat="41.1969234" lon="1.0647922"><ele>328.83333333333337</ele><time>2026-04-12T12:05:17.958Z</time></trkpt><trkpt lat="41.1968613" lon="1.0647291"><ele>328.6666666666667</ele><time>2026-04-12T12:05:21.96Z</time></trkpt><trkpt lat="41.1967892" lon="1.0646886"><ele>328.5</ele><time>2026-04-12T12:05:24.959Z</time></trkpt><trkpt lat="41.1967347" lon="1.0647605"><ele>328.3333333333333</ele><time>2026-04-12T12:05:32.96Z</time></trkpt><trkpt lat="41.1966691" lon="1.0647927"><ele>328.16666666666663</ele><time>2026-04-12T12:05:35.958Z</time></trkpt><trkpt lat="41.1965893" lon="1.0647948"><ele>328.0</ele><time>2026-04-12T12:05:36.959Z</time></trkpt><trkpt lat="41.1965229" lon="1.0648218"><ele>326.3333333333333</ele><time>2026-04-12T12:05:38.959Z</time></trkpt><trkpt lat="41.1964284" lon="1.0648487"><ele>324.66666666666663</ele><time>2026-04-12T12:05:41.959Z</time></trkpt><trkpt lat="41.1963585" lon="1.0648368"><ele>323.0</ele><time>2026-04-12T12:05:43.961Z</time></trkpt><trkpt lat="41.196284" lon="1.0648391"><ele>321.3333333333333</ele><time>2026-04-12T12:05:45.959Z</time></trkpt><trkpt lat="41.1962201" lon="1.0648221"><ele>319.6666666666667</ele><time>2026-04-12T12:05:48.959Z</time></trkpt><trkpt lat="41.1961388" lon="1.0648904"><ele>318.0</ele><time>2026-04-12T12:05:52.959Z</time></trkpt><trkpt lat="41.196077" lon="1.0649706"><ele>317.6666666666667</ele><time>2026-04-12T12:05:56.959Z</time></trkpt><trkpt lat="41.1959987" lon="1.0649838"><ele>317.3333333333333</ele><time>2026-04-12T12:05:59.958Z</time></trkpt><trkpt lat="41.1959269" lon="1.0649969"><ele>317.0</ele><time>2026-04-12T12:06:03.961Z</time></trkpt><trkpt lat="41.1958448" lon="1.0650221"><ele>316.66666666666663</ele><time>2026-04-12T12:06:07.96Z</time></trkpt><trkpt lat="41.1957633" lon="1.0650383"><ele>316.3333333333333</ele><time>2026-04-12T12:06:10.958Z</time></trkpt><trkpt lat="41.1956835" lon="1.0650593"><ele>316.0</ele><time>2026-04-12T12:06:13.959Z</time></trkpt><trkpt lat="41.1956051" lon="1.0650639"><ele>314.3333333333333</ele><time>2026-04-12T12:06:15.959Z</time></trkpt><trkpt lat="41.1955241" lon="1.0650543"><ele>312.66666666666663</ele><time>2026-04-12T12:06:18.958Z</time></trkpt><trkpt lat="41.1954598" lon="1.0650196"><ele>311.0</ele><time>2026-04-12T12:06:39.959Z</time></trkpt><trkpt lat="41.1953897" lon="1.0650177"><ele>309.3333333333333</ele><time>2026-04-12T12:06:41.96Z</time></trkpt><trkpt lat="41.1952949" lon="1.0650254"><ele>307.6666666666667</ele><time>2026-04-12T12:06:43.958Z</time></trkpt><trkpt lat="41.1951798" lon="1.0650046"><ele>306.0</ele><time>2026-04-12T12:06:45.96Z</time></trkpt><trkpt lat="41.195051" lon="1.0649828"><ele>306.0</ele><time>2026-04-12T12:06:47.96Z</time></trkpt><trkpt lat="41.1949529" lon="1.064967"><ele>306.0</ele><time>2026-04-12T12:06:49.959Z</time></trkpt><trkpt lat="41.1948437" lon="1.0649518"><ele>306.0</ele><time>2026-04-12T12:06:51.959Z</time></trkpt><trkpt lat="41.1947526" lon="1.0649166"><ele>306.0</ele><time>2026-04-12T12:06:53.959Z</time></trkpt><trkpt lat="41.1946577" lon="1.0649137"><ele>306.0</ele><time>2026-04-12T12:06:55.959Z</time></trkpt><trkpt lat="41.1945519" lon="1.0649078"><ele>304.7142857142857</ele><time>2026-04-12T12:06:57.959Z</time></trkpt><trkpt lat="41.1944843" lon="1.0649026"><ele>303.42857142857144</ele><time>2026-04-12T12:06:59.959Z</time></trkpt><trkpt lat="41.1944215" lon="1.0648885"><ele>302.14285714285717</ele><time>2026-04-12T12:07:01.959Z</time></trkpt><trkpt lat="41.1943446" lon="1.0648603"><ele>300.8571428571429</ele><time>2026-04-12T12:07:04.959Z</time></trkpt><trkpt lat="41.1942712" lon="1.0648362"><ele>299.5714285714286</ele><time>2026-04-12T12:07:07.959Z</time></trkpt><trkpt lat="41.1941923" lon="1.0648003"><ele>298.2857142857143</ele><time>2026-04-12T12:07:11.96Z</time></trkpt><trkpt lat="41.1941319" lon="1.0647521"><ele>297.0</ele><time>2026-04-12T12:07:15.96Z</time></trkpt><trkpt lat="41.1940628" lon="1.0647096"><ele>296.57142857142856</ele><time>2026-04-12T12:07:19.958Z</time></trkpt><trkpt lat="41.1939876" lon="1.0647431"><ele>296.14285714285717</ele><time>2026-04-12T12:07:22.96Z</time></trkpt><trkpt lat="41.1939847" lon="1.0648594"><ele>295.7142857142857</ele><time>2026-04-12T12:07:25.959Z</time></trkpt><trkpt lat="41.1940009" lon="1.0649435"><ele>295.2857142857143</ele><time>2026-04-12T12:07:27.959Z</time></trkpt><trkpt lat="41.1940068" lon="1.0650281"><ele>294.8571428571429</ele><time>2026-04-12T12:07:30.958Z</time></trkpt><trkpt lat="41.1939451" lon="1.0650585"><ele>294.42857142857144</ele><time>2026-04-12T12:07:35.96Z</time></trkpt><trkpt lat="41.1938817" lon="1.0649812"><ele>294.0</ele><time>2026-04-12T12:08:16.96Z</time></trkpt><trkpt lat="41.1938373" lon="1.0648826"><ele>293.1666666666667</ele><time>2026-04-12T12:08:18.96Z</time></trkpt><trkpt lat="41.1937844" lon="1.0648234"><ele>292.3333333333333</ele><time>2026-04-12T12:08:20.959Z</time></trkpt><trkpt lat="41.1937019" lon="1.0648723"><ele>291.5</ele><time>2026-04-12T12:08:23.959Z</time></trkpt><trkpt lat="41.1936324" lon="1.0649348"><ele>290.66666666666663</ele><time>2026-04-12T12:08:25.96Z</time></trkpt><trkpt lat="41.1935267" lon="1.0649837"><ele>289.8333333333333</ele><time>2026-04-12T12:08:27.96Z</time></trkpt><trkpt lat="41.1934485" lon="1.0650354"><ele>289.0</ele><time>2026-04-12T12:08:29.96Z</time></trkpt><trkpt lat="41.1933408" lon="1.0650483"><ele>288.16666666666663</ele><time>2026-04-12T12:08:31.96Z</time></trkpt><trkpt lat="41.1932355" lon="1.0650072"><ele>287.3333333333333</ele><time>2026-04-12T12:08:33.959Z</time></trkpt><trkpt lat="41.1931719" lon="1.0649856"><ele>286.5</ele><time>2026-04-12T12:08:34.959Z</time></trkpt><trkpt lat="41.1931011" lon="1.0649699"><ele>285.6666666666667</ele><time>2026-04-12T12:08:35.959Z</time></trkpt><trkpt lat="41.1929746" lon="1.064965"><ele>284.83333333333337</ele><time>2026-04-12T12:08:37.959Z</time></trkpt><trkpt lat="41.1929093" lon="1.0649748"><ele>284.0</ele><time>2026-04-12T12:08:38.96Z</time></trkpt><trkpt lat="41.1927887" lon="1.0649789"><ele>282.2</ele><time>2026-04-12T12:08:40.96Z</time></trkpt><trkpt lat="41.1926802" lon="1.0650237"><ele>280.4</ele><time>2026-04-12T12:08:42.961Z</time></trkpt><trkpt lat="41.192589" lon="1.0651002"><ele>278.6</ele><time>2026-04-12T12:08:44.958Z</time></trkpt><trkpt lat="41.1924842" lon="1.0651872"><ele>276.8</ele><time>2026-04-12T12:08:46.961Z</time></trkpt><trkpt lat="41.1924175" lon="1.0652246"><ele>275.0</ele><time>2026-04-12T12:08:47.96Z</time></trkpt><trkpt lat="41.1922927" lon="1.0652738"><ele>274.0</ele><time>2026-04-12T12:08:49.96Z</time></trkpt><trkpt lat="41.1921938" lon="1.0653426"><ele>273.0</ele><time>2026-04-12T12:08:51.96Z</time></trkpt><trkpt lat="41.1920775" lon="1.0654137"><ele>272.0</ele><time>2026-04-12T12:08:53.96Z</time></trkpt><trkpt lat="41.1920055" lon="1.0654552"><ele>271.0</ele><time>2026-04-12T12:08:54.959Z</time></trkpt><trkpt lat="41.1919444" lon="1.0654925"><ele>270.0</ele><time>2026-04-12T12:08:55.96Z</time></trkpt><trkpt lat="41.1918789" lon="1.0655271"><ele>270.0</ele><time>2026-04-12T12:08:56.96Z</time></trkpt><trkpt lat="41.1918169" lon="1.0655638"><ele>270.0</ele><time>2026-04-12T12:08:57.959Z</time></trkpt><trkpt lat="41.1917525" lon="1.065588"><ele>270.0</ele><time>2026-04-12T12:08:58.96Z</time></trkpt><trkpt lat="41.1916229" lon="1.0655966"><ele>270.0</ele><time>2026-04-12T12:09:00.96Z</time></trkpt><trkpt lat="41.1915554" lon="1.0655899"><ele>270.0</ele><time>2026-04-12T12:09:01.96Z</time></trkpt><trkpt lat="41.1914813" lon="1.0655946"><ele>270.0</ele><time>2026-04-12T12:09:02.96Z</time></trkpt><trkpt lat="41.1914165" lon="1.0655821"><ele>269.2</ele><time>2026-04-12T12:09:03.96Z</time></trkpt><trkpt lat="41.1913491" lon="1.0655692"><ele>268.4</ele><time>2026-04-12T12:09:04.96Z</time></trkpt><trkpt lat="41.1912827" lon="1.065542"><ele>267.6</ele><time>2026-04-12T12:09:05.96Z</time></trkpt><trkpt lat="41.1911769" lon="1.0654573"><ele>266.8</ele><time>2026-04-12T12:09:07.96Z</time></trkpt><trkpt lat="41.1910936" lon="1.065362"><ele>266.0</ele><time>2026-04-12T12:09:09.958Z</time></trkpt><trkpt lat="41.191005" lon="1.0652678"><ele>266.0</ele><time>2026-04-12T12:09:11.959Z</time></trkpt><trkpt lat="41.1909308" lon="1.0651997"><ele>266.0</ele><time>2026-04-12T12:09:13.96Z</time></trkpt><trkpt lat="41.1908374" lon="1.0651635"><ele>266.0</ele><time>2026-04-12T12:09:15.959Z</time></trkpt><trkpt lat="41.1907368" lon="1.0651317"><ele>266.0</ele><time>2026-04-12T12:09:17.96Z</time></trkpt><trkpt lat="41.1906397" lon="1.0650749"><ele>266.0</ele><time>2026-04-12T12:09:19.96Z</time></trkpt><trkpt lat="41.1905899" lon="1.0650205"><ele>265.0</ele><time>2026-04-12T12:09:20.961Z</time></trkpt><trkpt lat="41.1904938" lon="1.0649248"><ele>264.0</ele><time>2026-04-12T12:09:22.96Z</time></trkpt><trkpt lat="41.1904111" lon="1.0647973"><ele>263.0</ele><time>2026-04-12T12:09:24.96Z</time></trkpt><trkpt lat="41.1903689" lon="1.064719"><ele>262.0</ele><time>2026-04-12T12:09:25.96Z</time></trkpt><trkpt lat="41.1903172" lon="1.0646616"><ele>261.0</ele><time>2026-04-12T12:09:26.96Z</time></trkpt><trkpt lat="41.1902657" lon="1.064607"><ele>261.0</ele><time>2026-04-12T12:09:27.96Z</time></trkpt><trkpt lat="41.1901446" lon="1.0645353"><ele>261.0</ele><time>2026-04-12T12:09:29.961Z</time></trkpt><trkpt lat="41.1900847" lon="1.0645026"><ele>261.0</ele><time>2026-04-12T12:09:30.96Z</time></trkpt><trkpt lat="41.1900245" lon="1.0644598"><ele>261.0</ele><time>2026-04-12T12:09:31.959Z</time></trkpt><trkpt lat="41.1899686" lon="1.0644112"><ele>261.0</ele><time>2026-04-12T12:09:32.96Z</time></trkpt><trkpt lat="41.1899174" lon="1.0643459"><ele>261.0</ele><time>2026-04-12T12:09:33.96Z</time></trkpt><trkpt lat="41.1898723" lon="1.0642758"><ele>260.8571428571429</ele><time>2026-04-12T12:09:34.961Z</time></trkpt><trkpt lat="41.189823" lon="1.0642075"><ele>260.7142857142857</ele><time>2026-04-12T12:09:35.96Z</time></trkpt><trkpt lat="41.189768" lon="1.0641376"><ele>260.57142857142856</ele><time>2026-04-12T12:09:36.959Z</time></trkpt><trkpt lat="41.1897065" lon="1.0640842"><ele>260.42857142857144</ele><time>2026-04-12T12:09:37.96Z</time></trkpt><trkpt lat="41.1896439" lon="1.0640264"><ele>260.2857142857143</ele><time>2026-04-12T12:09:38.96Z</time></trkpt><trkpt lat="41.1895866" lon="1.0639632"><ele>260.14285714285717</ele><time>2026-04-12T12:09:39.959Z</time></trkpt><trkpt lat="41.1895256" lon="1.0639042"><ele>260.0</ele><time>2026-04-12T12:09:40.96Z</time></trkpt><trkpt lat="41.1894655" lon="1.0638523"><ele>259.14285714285717</ele><time>2026-04-12T12:09:41.96Z</time></trkpt><trkpt lat="41.1894" lon="1.0637913"><ele>258.2857142857143</ele><time>2026-04-12T12:09:42.96Z</time></trkpt><trkpt lat="41.1893361" lon="1.0637319"><ele>257.42857142857144</ele><time>2026-04-12T12:09:43.959Z</time></trkpt><trkpt lat="41.1892686" lon="1.0636963"><ele>256.57142857142856</ele><time>2026-04-12T12:09:44.959Z</time></trkpt><trkpt lat="41.1892097" lon="1.0636407"><ele>255.71428571428572</ele><time>2026-04-12T12:09:45.959Z</time></trkpt><trkpt lat="41.1891532" lon="1.0635971"><ele>254.85714285714286</ele><time>2026-04-12T12:09:46.96Z</time></trkpt><trkpt lat="41.1890969" lon="1.0635441"><ele>254.0</ele><time>2026-04-12T12:09:47.96Z</time></trkpt><trkpt lat="41.1890434" lon="1.0634938"><ele>254.42857142857144</ele><time>2026-04-12T12:09:48.96Z</time></trkpt><trkpt lat="41.188992" lon="1.0634378"><ele>254.85714285714283</ele><time>2026-04-12T12:09:49.96Z</time></trkpt><trkpt lat="41.1889475" lon="1.0633783"><ele>255.28571428571428</ele><time>2026-04-12T12:09:50.959Z</time></trkpt><trkpt lat="41.1889043" lon="1.0633121"><ele>255.71428571428572</ele><time>2026-04-12T12:09:51.96Z</time></trkpt><trkpt lat="41.188861" lon="1.063243"><ele>256.14285714285717</ele><time>2026-04-12T12:09:52.959Z</time></trkpt><trkpt lat="41.1888128" lon="1.0631693"><ele>256.57142857142856</ele><time>2026-04-12T12:09:53.959Z</time></trkpt><trkpt lat="41.1887628" lon="1.0630841"><ele>257.0</ele><time>2026-04-12T12:09:54.959Z</time></trkpt><trkpt lat="41.1887155" lon="1.0630012"><ele>257.0</ele><time>2026-04-12T12:09:55.96Z</time></trkpt><trkpt lat="41.1886677" lon="1.062921"><ele>257.0</ele><time>2026-04-12T12:09:56.96Z</time></trkpt><trkpt lat="41.1886267" lon="1.0628388"><ele>257.0</ele><time>2026-04-12T12:09:57.96Z</time></trkpt><trkpt lat="41.1885879" lon="1.0627523"><ele>257.0</ele><time>2026-04-12T12:09:58.96Z</time></trkpt><trkpt lat="41.1885498" lon="1.0626504"><ele>257.0</ele><time>2026-04-12T12:09:59.961Z</time></trkpt><trkpt lat="41.1885171" lon="1.0625558"><ele>257.0</ele><time>2026-04-12T12:10:00.96Z</time></trkpt><trkpt lat="41.1884765" lon="1.0624683"><ele>256.0</ele><time>2026-04-12T12:10:01.96Z</time></trkpt><trkpt lat="41.1884414" lon="1.0623855"><ele>255.0</ele><time>2026-04-12T12:10:02.959Z</time></trkpt><trkpt lat="41.1884193" lon="1.0622897"><ele>254.0</ele><time>2026-04-12T12:10:03.959Z</time></trkpt><trkpt lat="41.188391" lon="1.0621969"><ele>253.0</ele><time>2026-04-12T12:10:04.96Z</time></trkpt><trkpt lat="41.1883573" lon="1.0621205"><ele>252.0</ele><time>2026-04-12T12:10:05.96Z</time></trkpt><trkpt lat="41.1883231" lon="1.0620327"><ele>251.0</ele><time>2026-04-12T12:10:06.96Z</time></trkpt><trkpt lat="41.188287" lon="1.0619345"><ele>250.0</ele><time>2026-04-12T12:10:07.96Z</time></trkpt><trkpt lat="41.1882582" lon="1.0618457"><ele>250.0</ele><time>2026-04-12T12:10:08.96Z</time></trkpt><trkpt lat="41.1882275" lon="1.0617575"><ele>250.0</ele><time>2026-04-12T12:10:09.959Z</time></trkpt><trkpt lat="41.1881985" lon="1.061663"><ele>250.0</ele><time>2026-04-12T12:10:10.959Z</time></trkpt><trkpt lat="41.1881657" lon="1.06157"><ele>250.0</ele><time>2026-04-12T12:10:11.96Z</time></trkpt><trkpt lat="41.1881309" lon="1.0614868"><ele>250.0</ele><time>2026-04-12T12:10:12.959Z</time></trkpt><trkpt lat="41.1880963" lon="1.0614063"><ele>250.0</ele><time>2026-04-12T12:10:13.959Z</time></trkpt><trkpt lat="41.1880606" lon="1.061313"><ele>250.0</ele><time>2026-04-12T12:10:14.96Z</time></trkpt><trkpt lat="41.1880262" lon="1.0612162"><ele>249.33333333333331</ele><time>2026-04-12T12:10:15.959Z</time></trkpt><trkpt lat="41.1879856" lon="1.0611404"><ele>248.66666666666666</ele><time>2026-04-12T12:10:16.96Z</time></trkpt><trkpt lat="41.187949" lon="1.0610595"><ele>248.0</ele><time>2026-04-12T12:10:17.961Z</time></trkpt><trkpt lat="41.1879108" lon="1.060978"><ele>247.33333333333331</ele><time>2026-04-12T12:10:18.96Z</time></trkpt><trkpt lat="41.1878723" lon="1.0609005"><ele>246.66666666666666</ele><time>2026-04-12T12:10:19.959Z</time></trkpt><trkpt lat="41.1878355" lon="1.0608267"><ele>246.0</ele><time>2026-04-12T12:10:20.96Z</time></trkpt><trkpt lat="41.1877547" lon="1.0606986"><ele>245.16666666666666</ele><time>2026-04-12T12:10:22.96Z</time></trkpt><trkpt lat="41.1877073" lon="1.0606226"><ele>244.33333333333331</ele><time>2026-04-12T12:10:23.96Z</time></trkpt><trkpt lat="41.1876528" lon="1.0605567"><ele>243.5</ele><time>2026-04-12T12:10:24.96Z</time></trkpt><trkpt lat="41.187595" lon="1.0604878"><ele>242.66666666666666</ele><time>2026-04-12T12:10:25.961Z</time></trkpt><trkpt lat="41.1875367" lon="1.0603882"><ele>241.83333333333331</ele><time>2026-04-12T12:10:26.959Z</time></trkpt><trkpt lat="41.187472" lon="1.0603338"><ele>241.0</ele><time>2026-04-12T12:10:27.96Z</time></trkpt><trkpt lat="41.1874135" lon="1.060279"><ele>240.99999999999997</ele><time>2026-04-12T12:10:28.96Z</time></trkpt><trkpt lat="41.1873511" lon="1.0602196"><ele>241.0</ele><time>2026-04-12T12:10:29.959Z</time></trkpt><trkpt lat="41.1872887" lon="1.0601632"><ele>241.0</ele><time>2026-04-12T12:10:30.96Z</time></trkpt><trkpt lat="41.1872331" lon="1.0600914"><ele>241.0</ele><time>2026-04-12T12:10:31.96Z</time></trkpt><trkpt lat="41.1871745" lon="1.0600319"><ele>240.99999999999997</ele><time>2026-04-12T12:10:32.96Z</time></trkpt><trkpt lat="41.1871165" lon="1.0599735"><ele>241.0</ele><time>2026-04-12T12:10:33.96Z</time></trkpt><trkpt lat="41.1870555" lon="1.0599156"><ele>241.49999999999997</ele><time>2026-04-12T12:10:34.96Z</time></trkpt><trkpt lat="41.1869928" lon="1.0598543"><ele>242.0</ele><time>2026-04-12T12:10:35.959Z</time></trkpt><trkpt lat="41.1869248" lon="1.059795"><ele>242.5</ele><time>2026-04-12T12:10:36.959Z</time></trkpt><trkpt lat="41.186856" lon="1.0597384"><ele>243.0</ele><time>2026-04-12T12:10:37.96Z</time></trkpt><trkpt lat="41.186788" lon="1.0596884"><ele>243.49999999999997</ele><time>2026-04-12T12:10:38.96Z</time></trkpt><trkpt lat="41.1867141" lon="1.0596303"><ele>244.0</ele><time>2026-04-12T12:10:39.96Z</time></trkpt><trkpt lat="41.1866372" lon="1.0595703"><ele>244.0</ele><time>2026-04-12T12:10:40.96Z</time></trkpt><trkpt lat="41.1865611" lon="1.0594968"><ele>243.99999999999997</ele><time>2026-04-12T12:10:41.96Z</time></trkpt><trkpt lat="41.1864848" lon="1.0594276"><ele>243.99999999999997</ele><time>2026-04-12T12:10:42.959Z</time></trkpt><trkpt lat="41.186409" lon="1.0593637"><ele>244.0</ele><time>2026-04-12T12:10:43.961Z</time></trkpt><trkpt lat="41.186331" lon="1.0592944"><ele>244.0</ele><time>2026-04-12T12:10:44.959Z</time></trkpt><trkpt lat="41.1862541" lon="1.0592231"><ele>243.33333333333331</ele><time>2026-04-12T12:10:45.961Z</time></trkpt><trkpt lat="41.1861846" lon="1.0591639"><ele>242.66666666666666</ele><time>2026-04-12T12:10:46.96Z</time></trkpt><trkpt lat="41.1861083" lon="1.059101"><ele>242.0</ele><time>2026-04-12T12:10:47.96Z</time></trkpt><trkpt lat="41.1860309" lon="1.0590442"><ele>241.33333333333331</ele><time>2026-04-12T12:10:48.96Z</time></trkpt><trkpt lat="41.185955" lon="1.0589897"><ele>240.66666666666666</ele><time>2026-04-12T12:10:49.961Z</time></trkpt><trkpt lat="41.1858776" lon="1.0589371"><ele>240.0</ele><time>2026-04-12T12:10:50.96Z</time></trkpt><trkpt lat="41.1858022" lon="1.0588809"><ele>240.0</ele><time>2026-04-12T12:10:51.959Z</time></trkpt><trkpt lat="41.1857219" lon="1.0588231"><ele>240.0</ele><time>2026-04-12T12:10:52.96Z</time></trkpt><trkpt lat="41.1856428" lon="1.0587886"><ele>240.0</ele><time>2026-04-12T12:10:53.961Z</time></trkpt><trkpt lat="41.1855734" lon="1.0587361"><ele>240.0</ele><time>2026-04-12T12:10:54.959Z</time></trkpt><trkpt lat="41.1855056" lon="1.0586771"><ele>240.0</ele><time>2026-04-12T12:10:55.959Z</time></trkpt><trkpt lat="41.185439" lon="1.0586299"><ele>240.0</ele><time>2026-04-12T12:10:56.959Z</time></trkpt><trkpt lat="41.185368" lon="1.0585882"><ele>238.66666666666666</ele><time>2026-04-12T12:10:57.96Z</time></trkpt><trkpt lat="41.1853016" lon="1.058544"><ele>237.33333333333331</ele><time>2026-04-12T12:10:58.96Z</time></trkpt><trkpt lat="41.1852288" lon="1.0585169"><ele>236.0</ele><time>2026-04-12T12:10:59.959Z</time></trkpt><trkpt lat="41.1851523" lon="1.058487"><ele>234.66666666666666</ele><time>2026-04-12T12:11:00.96Z</time></trkpt><trkpt lat="41.1850751" lon="1.0584574"><ele>233.33333333333331</ele><time>2026-04-12T12:11:01.959Z</time></trkpt><trkpt lat="41.1849979" lon="1.0584387"><ele>232.0</ele><time>2026-04-12T12:11:02.959Z</time></trkpt><trkpt lat="41.1849255" lon="1.0584244"><ele>231.99999999999997</ele><time>2026-04-12T12:11:03.96Z</time></trkpt><trkpt lat="41.1848527" lon="1.0583981"><ele>232.0</ele><time>2026-04-12T12:11:04.959Z</time></trkpt><trkpt lat="41.184769" lon="1.0583735"><ele>232.0</ele><time>2026-04-12T12:11:05.96Z</time></trkpt><trkpt lat="41.1846941" lon="1.0583424"><ele>232.0</ele><time>2026-04-12T12:11:06.959Z</time></trkpt><trkpt lat="41.1846216" lon="1.0583007"><ele>231.99999999999997</ele><time>2026-04-12T12:11:07.959Z</time></trkpt><trkpt lat="41.1845504" lon="1.058249"><ele>232.0</ele><time>2026-04-12T12:11:08.959Z</time></trkpt><trkpt lat="41.1844815" lon="1.0581879"><ele>231.16666666666666</ele><time>2026-04-12T12:11:09.96Z</time></trkpt><trkpt lat="41.1844239" lon="1.0581292"><ele>230.33333333333331</ele><time>2026-04-12T12:11:10.96Z</time></trkpt><trkpt lat="41.1843588" lon="1.0580547"><ele>229.5</ele><time>2026-04-12T12:11:11.96Z</time></trkpt><trkpt lat="41.1842919" lon="1.0579931"><ele>228.66666666666669</ele><time>2026-04-12T12:11:12.96Z</time></trkpt><trkpt lat="41.1842201" lon="1.0579472"><ele>227.83333333333334</ele><time>2026-04-12T12:11:13.96Z</time></trkpt><trkpt lat="41.1841475" lon="1.0578924"><ele>227.0</ele><time>2026-04-12T12:11:14.959Z</time></trkpt><trkpt lat="41.1840711" lon="1.0578286"><ele>226.2</ele><time>2026-04-12T12:11:15.959Z</time></trkpt><trkpt lat="41.1839971" lon="1.0577621"><ele>225.39999999999998</ele><time>2026-04-12T12:11:16.96Z</time></trkpt><trkpt lat="41.1839258" lon="1.0576857"><ele>224.60000000000002</ele><time>2026-04-12T12:11:17.96Z</time></trkpt><trkpt lat="41.1838542" lon="1.0576133"><ele>223.8</ele><time>2026-04-12T12:11:18.959Z</time></trkpt><trkpt lat="41.1837851" lon="1.0575387"><ele>223.0</ele><time>2026-04-12T12:11:19.959Z</time></trkpt><trkpt lat="41.183713" lon="1.057463"><ele>222.83333333333331</ele><time>2026-04-12T12:11:20.959Z</time></trkpt><trkpt lat="41.1836372" lon="1.0573864"><ele>222.66666666666666</ele><time>2026-04-12T12:11:21.96Z</time></trkpt><trkpt lat="41.1835678" lon="1.057316"><ele>222.5</ele><time>2026-04-12T12:11:22.96Z</time></trkpt><trkpt lat="41.1834975" lon="1.0572469"><ele>222.33333333333331</ele><time>2026-04-12T12:11:23.959Z</time></trkpt><trkpt lat="41.1834316" lon="1.0571854"><ele>222.16666666666666</ele><time>2026-04-12T12:11:24.959Z</time></trkpt><trkpt lat="41.183365" lon="1.0571176"><ele>222.0</ele><time>2026-04-12T12:11:25.96Z</time></trkpt><trkpt lat="41.1832972" lon="1.0570531"><ele>222.0</ele><time>2026-04-12T12:11:26.96Z</time></trkpt><trkpt lat="41.1832254" lon="1.0569787"><ele>222.0</ele><time>2026-04-12T12:11:27.959Z</time></trkpt><trkpt lat="41.1831601" lon="1.0569101"><ele>222.0</ele><time>2026-04-12T12:11:28.959Z</time></trkpt><trkpt lat="41.1830882" lon="1.0568291"><ele>222.0</ele><time>2026-04-12T12:11:29.96Z</time></trkpt><trkpt lat="41.1830255" lon="1.0567478"><ele>222.0</ele><time>2026-04-12T12:11:30.96Z</time></trkpt><trkpt lat="41.1829612" lon="1.0566909"><ele>222.0</ele><time>2026-04-12T12:11:31.96Z</time></trkpt><trkpt lat="41.182897" lon="1.0566172"><ele>221.33333333333334</ele><time>2026-04-12T12:11:32.96Z</time></trkpt><trkpt lat="41.1828299" lon="1.0565501"><ele>220.66666666666669</ele><time>2026-04-12T12:11:33.959Z</time></trkpt><trkpt lat="41.1827693" lon="1.0564815"><ele>220.0</ele><time>2026-04-12T12:11:34.959Z</time></trkpt><trkpt lat="41.1827065" lon="1.0564066"><ele>219.33333333333334</ele><time>2026-04-12T12:11:35.96Z</time></trkpt><trkpt lat="41.1826404" lon="1.0563519"><ele>218.66666666666669</ele><time>2026-04-12T12:11:36.96Z</time></trkpt><trkpt lat="41.1825757" lon="1.0562829"><ele>218.0</ele><time>2026-04-12T12:11:37.96Z</time></trkpt><trkpt lat="41.1825156" lon="1.0562085"><ele>218.00000000000003</ele><time>2026-04-12T12:11:38.96Z</time></trkpt><trkpt lat="41.1824559" lon="1.0561431"><ele>218.0</ele><time>2026-04-12T12:11:39.96Z</time></trkpt><trkpt lat="41.1823989" lon="1.0560683"><ele>218.0</ele><time>2026-04-12T12:11:40.96Z</time></trkpt><trkpt lat="41.1823409" lon="1.0559981"><ele>218.0</ele><time>2026-04-12T12:11:41.96Z</time></trkpt><trkpt lat="41.1822833" lon="1.0559259"><ele>218.00000000000003</ele><time>2026-04-12T12:11:42.959Z</time></trkpt><trkpt lat="41.1822331" lon="1.0558437"><ele>218.0</ele><time>2026-04-12T12:11:43.961Z</time></trkpt><trkpt lat="41.182183" lon="1.055764"><ele>218.0</ele><time>2026-04-12T12:11:44.96Z</time></trkpt><trkpt lat="41.1821349" lon="1.0556909"><ele>218.0</ele><time>2026-04-12T12:11:45.961Z</time></trkpt><trkpt lat="41.1820596" lon="1.0555439"><ele>218.0</ele><time>2026-04-12T12:11:47.96Z</time></trkpt><trkpt lat="41.1819999" lon="1.0553787"><ele>218.0</ele><time>2026-04-12T12:11:49.96Z</time></trkpt><trkpt lat="41.1819827" lon="1.0552876"><ele>218.0</ele><time>2026-04-12T12:11:50.96Z</time></trkpt><trkpt lat="41.1819669" lon="1.0551991"><ele>218.0</ele><time>2026-04-12T12:11:51.96Z</time></trkpt><trkpt lat="41.1819571" lon="1.055097"><ele>218.0</ele><time>2026-04-12T12:11:52.96Z</time></trkpt><trkpt lat="41.1819441" lon="1.0550013"><ele>218.0</ele><time>2026-04-12T12:11:53.96Z</time></trkpt><trkpt lat="41.1819423" lon="1.0549089"><ele>218.0</ele><time>2026-04-12T12:11:54.96Z</time></trkpt><trkpt lat="41.181942" lon="1.0548135"><ele>218.0</ele><time>2026-04-12T12:11:55.96Z</time></trkpt><trkpt lat="41.1819446" lon="1.0547248"><ele>218.0</ele><time>2026-04-12T12:11:56.959Z</time></trkpt><trkpt lat="41.1819541" lon="1.0546317"><ele>218.0</ele><time>2026-04-12T12:11:57.96Z</time></trkpt><trkpt lat="41.1819687" lon="1.0545312"><ele>217.85714285714286</ele><time>2026-04-12T12:11:58.961Z</time></trkpt><trkpt lat="41.1819873" lon="1.0544369"><ele>217.71428571428572</ele><time>2026-04-12T12:11:59.96Z</time></trkpt><trkpt lat="41.1819983" lon="1.0543496"><ele>217.57142857142856</ele><time>2026-04-12T12:12:00.96Z</time></trkpt><trkpt lat="41.1820139" lon="1.0542608"><ele>217.42857142857144</ele><time>2026-04-12T12:12:01.96Z</time></trkpt><trkpt lat="41.1820417" lon="1.0541778"><ele>217.28571428571428</ele><time>2026-04-12T12:12:02.959Z</time></trkpt><trkpt lat="41.1820669" lon="1.0540951"><ele>217.14285714285714</ele><time>2026-04-12T12:12:03.961Z</time></trkpt><trkpt lat="41.1820917" lon="1.0540111"><ele>217.0</ele><time>2026-04-12T12:12:04.959Z</time></trkpt><trkpt lat="41.1821059" lon="1.0539282"><ele>216.0</ele><time>2026-04-12T12:12:05.959Z</time></trkpt><trkpt lat="41.1821263" lon="1.0537663"><ele>215.0</ele><time>2026-04-12T12:12:07.961Z</time></trkpt><trkpt lat="41.1821534" lon="1.0536205"><ele>214.0</ele><time>2026-04-12T12:12:09.96Z</time></trkpt><trkpt lat="41.182173" lon="1.0535066"><ele>213.0</ele><time>2026-04-12T12:12:11.959Z</time></trkpt><trkpt lat="41.1821772" lon="1.05342"><ele>212.0</ele><time>2026-04-12T12:12:13.96Z</time></trkpt><trkpt lat="41.1821347" lon="1.0533505"><ele>212.00000000000003</ele><time>2026-04-12T12:12:16.96Z</time></trkpt><trkpt lat="41.1820585" lon="1.0533381"><ele>212.0</ele><time>2026-04-12T12:12:21.961Z</time></trkpt><trkpt lat="41.1819831" lon="1.0533569"><ele>212.0</ele><time>2026-04-12T12:12:25.96Z</time></trkpt><trkpt lat="41.1819036" lon="1.053358"><ele>212.0</ele><time>2026-04-12T12:12:29.959Z</time></trkpt><trkpt lat="41.1818348" lon="1.0533621"><ele>212.00000000000003</ele><time>2026-04-12T12:12:33.96Z</time></trkpt><trkpt lat="41.1817569" lon="1.0533515"><ele>212.0</ele><time>2026-04-12T12:12:38.959Z</time></trkpt><trkpt lat="41.1816787" lon="1.0533447"><ele>212.0</ele><time>2026-04-12T12:12:42.959Z</time></trkpt><trkpt lat="41.181603" lon="1.0533335"><ele>212.0</ele><time>2026-04-12T12:12:46.96Z</time></trkpt><trkpt lat="41.1815334" lon="1.0533358"><ele>212.0</ele><time>2026-04-12T12:12:50.96Z</time></trkpt><trkpt lat="41.1814617" lon="1.0533488"><ele>212.0</ele><time>2026-04-12T12:12:54.96Z</time></trkpt><trkpt lat="41.1813996" lon="1.05338"><ele>212.0</ele><time>2026-04-12T12:12:57.96Z</time></trkpt><trkpt lat="41.1813408" lon="1.0534165"><ele>212.0</ele><time>2026-04-12T12:13:00.959Z</time></trkpt><trkpt lat="41.1812749" lon="1.0534642"><ele>212.0</ele><time>2026-04-12T12:13:03.96Z</time></trkpt><trkpt lat="41.1812124" lon="1.0535286"><ele>211.85714285714286</ele><time>2026-04-12T12:13:08.959Z</time></trkpt><trkpt lat="41.1811626" lon="1.0535933"><ele>211.7142857142857</ele><time>2026-04-12T12:13:12.96Z</time></trkpt><trkpt lat="41.1811295" lon="1.0536748"><ele>211.57142857142856</ele><time>2026-04-12T12:13:16.959Z</time></trkpt><trkpt lat="41.1811119" lon="1.053766"><ele>211.42857142857144</ele><time>2026-04-12T12:13:21.96Z</time></trkpt><trkpt lat="41.1810972" lon="1.0538532"><ele>211.28571428571428</ele><time>2026-04-12T12:13:24.959Z</time></trkpt><trkpt lat="41.1810695" lon="1.0539505"><ele>211.14285714285714</ele><time>2026-04-12T12:13:27.959Z</time></trkpt><trkpt lat="41.1810547" lon="1.0540386"><ele>211.0</ele><time>2026-04-12T12:13:30.959Z</time></trkpt><trkpt lat="41.181027" lon="1.054141"><ele>211.83333333333331</ele><time>2026-04-12T12:13:34.96Z</time></trkpt><trkpt lat="41.1810226" lon="1.0542314"><ele>212.66666666666666</ele><time>2026-04-12T12:13:37.959Z</time></trkpt><trkpt lat="41.1810376" lon="1.0543618"><ele>213.5</ele><time>2026-04-12T12:13:40.959Z</time></trkpt><trkpt lat="41.1810557" lon="1.0544528"><ele>214.33333333333331</ele><time>2026-04-12T12:13:42.959Z</time></trkpt><trkpt lat="41.1810748" lon="1.0545622"><ele>215.16666666666666</ele><time>2026-04-12T12:13:45.959Z</time></trkpt><trkpt lat="41.1810893" lon="1.0546695"><ele>216.0</ele><time>2026-04-12T12:13:49.959Z</time></trkpt><trkpt lat="41.181095" lon="1.0547867"><ele>216.0</ele><time>2026-04-12T12:13:53.959Z</time></trkpt><trkpt lat="41.1810942" lon="1.0548778"><ele>216.0</ele><time>2026-04-12T12:13:55.959Z</time></trkpt><trkpt lat="41.181092" lon="1.0549896"><ele>216.0</ele><time>2026-04-12T12:13:57.96Z</time></trkpt><trkpt lat="41.1810881" lon="1.0550912"><ele>216.0</ele><time>2026-04-12T12:13:59.96Z</time></trkpt><trkpt lat="41.1810924" lon="1.0552038"><ele>216.0</ele><time>2026-04-12T12:14:02.96Z</time></trkpt><trkpt lat="41.1810966" lon="1.0552876"><ele>216.0</ele><time>2026-04-12T12:14:04.959Z</time></trkpt><trkpt lat="41.1810962" lon="1.0553777"><ele>216.0</ele><time>2026-04-12T12:14:06.959Z</time></trkpt><trkpt lat="41.1810977" lon="1.0554639"><ele>216.16666666666666</ele><time>2026-04-12T12:14:08.959Z</time></trkpt><trkpt lat="41.1810977" lon="1.0555495"><ele>216.33333333333331</ele><time>2026-04-12T12:14:10.96Z</time></trkpt><trkpt lat="41.1810891" lon="1.0556725"><ele>216.5</ele><time>2026-04-12T12:14:13.96Z</time></trkpt><trkpt lat="41.1810851" lon="1.0557933"><ele>216.66666666666666</ele><time>2026-04-12T12:14:16.96Z</time></trkpt><trkpt lat="41.181073" lon="1.0559109"><ele>216.83333333333331</ele><time>2026-04-12T12:14:19.96Z</time></trkpt><trkpt lat="41.1810477" lon="1.056014"><ele>217.0</ele><time>2026-04-12T12:14:22.96Z</time></trkpt><trkpt lat="41.1810141" lon="1.0561095"><ele>217.49999999999997</ele><time>2026-04-12T12:14:25.96Z</time></trkpt><trkpt lat="41.1809696" lon="1.0562037"><ele>218.0</ele><time>2026-04-12T12:14:28.959Z</time></trkpt><trkpt lat="41.1809146" lon="1.0562717"><ele>218.5</ele><time>2026-04-12T12:14:30.959Z</time></trkpt><trkpt lat="41.1808436" lon="1.0563208"><ele>219.0</ele><time>2026-04-12T12:14:32.96Z</time></trkpt><trkpt lat="41.1807741" lon="1.0563598"><ele>219.49999999999997</ele><time>2026-04-12T12:14:34.96Z</time></trkpt><trkpt lat="41.1807131" lon="1.0564014"><ele>220.0</ele><time>2026-04-12T12:14:36.96Z</time></trkpt><trkpt lat="41.1806473" lon="1.0564474"><ele>220.16666666666666</ele><time>2026-04-12T12:14:38.961Z</time></trkpt><trkpt lat="41.1805842" lon="1.0564981"><ele>220.33333333333331</ele><time>2026-04-12T12:14:40.96Z</time></trkpt><trkpt lat="41.1805184" lon="1.0565446"><ele>220.5</ele><time>2026-04-12T12:14:42.96Z</time></trkpt><trkpt lat="41.18046" lon="1.0565842"><ele>220.66666666666669</ele><time>2026-04-12T12:14:44.961Z</time></trkpt><trkpt lat="41.1803816" lon="1.0566391"><ele>220.83333333333334</ele><time>2026-04-12T12:14:47.961Z</time></trkpt><trkpt lat="41.1803179" lon="1.0566831"><ele>221.0</ele><time>2026-04-12T12:14:50.961Z</time></trkpt><trkpt lat="41.180255" lon="1.0567463"><ele>221.8571428571429</ele><time>2026-04-12T12:14:54.961Z</time></trkpt><trkpt lat="41.1801999" lon="1.0567878"><ele>222.71428571428572</ele><time>2026-04-12T12:14:57.961Z</time></trkpt><trkpt lat="41.1801139" lon="1.0568389"><ele>223.57142857142858</ele><time>2026-04-12T12:15:00.96Z</time></trkpt><trkpt lat="41.1800431" lon="1.0568903"><ele>224.42857142857144</ele><time>2026-04-12T12:15:03.959Z</time></trkpt><trkpt lat="41.1799897" lon="1.0569425"><ele>225.2857142857143</ele><time>2026-04-12T12:15:06.96Z</time></trkpt><trkpt lat="41.1799395" lon="1.0569933"><ele>226.14285714285717</ele><time>2026-04-12T12:15:09.961Z</time></trkpt><trkpt lat="41.1798902" lon="1.0570686"><ele>227.0</ele><time>2026-04-12T12:15:13.96Z</time></trkpt><trkpt lat="41.1798662" lon="1.0571578"><ele>227.14285714285717</ele><time>2026-04-12T12:15:17.961Z</time></trkpt><trkpt lat="41.1798324" lon="1.0572554"><ele>227.2857142857143</ele><time>2026-04-12T12:15:21.961Z</time></trkpt><trkpt lat="41.1798052" lon="1.0573336"><ele>227.42857142857144</ele><time>2026-04-12T12:15:24.962Z</time></trkpt><trkpt lat="41.1797702" lon="1.0574138"><ele>227.57142857142856</ele><time>2026-04-12T12:15:27.96Z</time></trkpt><trkpt lat="41.1797302" lon="1.057497"><ele>227.7142857142857</ele><time>2026-04-12T12:15:30.961Z</time></trkpt><trkpt lat="41.1796857" lon="1.0575743"><ele>227.85714285714283</ele><time>2026-04-12T12:15:33.961Z</time></trkpt><trkpt lat="41.1796438" lon="1.0576477"><ele>228.0</ele><time>2026-04-12T12:15:36.96Z</time></trkpt><trkpt lat="41.1796002" lon="1.0577308"><ele>228.7142857142857</ele><time>2026-04-12T12:15:39.961Z</time></trkpt><trkpt lat="41.1795519" lon="1.0578071"><ele>229.4285714285714</ele><time>2026-04-12T12:15:42.96Z</time></trkpt><trkpt lat="41.1795063" lon="1.0578821"><ele>230.14285714285714</ele><time>2026-04-12T12:15:45.96Z</time></trkpt><trkpt lat="41.1794637" lon="1.0579523"><ele>230.85714285714283</ele><time>2026-04-12T12:15:48.961Z</time></trkpt><trkpt lat="41.17941" lon="1.0580381"><ele>231.57142857142856</ele><time>2026-04-12T12:15:52.961Z</time></trkpt><trkpt lat="41.1793695" lon="1.0581101"><ele>232.28571428571428</ele><time>2026-04-12T12:15:55.961Z</time></trkpt><trkpt lat="41.1793285" lon="1.0581819"><ele>233.0</ele><time>2026-04-12T12:15:58.96Z</time></trkpt><trkpt lat="41.1792885" lon="1.0582476"><ele>233.28571428571428</ele><time>2026-04-12T12:16:01.961Z</time></trkpt><trkpt lat="41.1792471" lon="1.0583252"><ele>233.57142857142856</ele><time>2026-04-12T12:16:05.961Z</time></trkpt><trkpt lat="41.179191" lon="1.0583906"><ele>233.85714285714283</ele><time>2026-04-12T12:16:09.961Z</time></trkpt><trkpt lat="41.1791559" lon="1.0584635"><ele>234.14285714285714</ele><time>2026-04-12T12:16:13.96Z</time></trkpt><trkpt lat="41.1791089" lon="1.0585409"><ele>234.4285714285714</ele><time>2026-04-12T12:16:18.961Z</time></trkpt><trkpt lat="41.1790536" lon="1.0586014"><ele>234.7142857142857</ele><time>2026-04-12T12:16:23.961Z</time></trkpt><trkpt lat="41.179018" lon="1.0586909"><ele>235.0</ele><time>2026-04-12T12:16:28.96Z</time></trkpt><trkpt lat="41.1789725" lon="1.0587606"><ele>235.0</ele><time>2026-04-12T12:16:32.96Z</time></trkpt><trkpt lat="41.1789244" lon="1.0588215"><ele>234.99999999999997</ele><time>2026-04-12T12:16:36.96Z</time></trkpt><trkpt lat="41.1788694" lon="1.0588811"><ele>235.0</ele><time>2026-04-12T12:16:41.96Z</time></trkpt><trkpt lat="41.1788171" lon="1.0589449"><ele>235.0</ele><time>2026-04-12T12:16:46.961Z</time></trkpt><trkpt lat="41.1787712" lon="1.0590085"><ele>234.99999999999997</ele><time>2026-04-12T12:16:51.961Z</time></trkpt><trkpt lat="41.17872" lon="1.0590627"><ele>235.0</ele><time>2026-04-12T12:16:55.961Z</time></trkpt><trkpt lat="41.1786638" lon="1.0591229"><ele>235.0</ele><time>2026-04-12T12:16:58.961Z</time></trkpt><trkpt lat="41.178586" lon="1.0591835"><ele>235.0</ele><time>2026-04-12T12:17:01.961Z</time></trkpt><trkpt lat="41.1785143" lon="1.0592162"><ele>235.0</ele><time>2026-04-12T12:17:03.96Z</time></trkpt><trkpt lat="41.1784373" lon="1.059252"><ele>235.0</ele><time>2026-04-12T12:17:05.96Z</time></trkpt><trkpt lat="41.1783453" lon="1.0592765"><ele>235.0</ele><time>2026-04-12T12:17:07.961Z</time></trkpt><trkpt lat="41.1780462" lon="1.0593967"><ele>235.0</ele><time>2026-04-12T12:17:09.961Z</time></trkpt><trkpt lat="41.1779837" lon="1.0594415"><ele>234.99999999999997</ele><time>2026-04-12T12:17:10.96Z</time></trkpt><trkpt lat="41.177923" lon="1.0595014"><ele>235.0</ele><time>2026-04-12T12:17:11.961Z</time></trkpt><trkpt lat="41.1778722" lon="1.0595671"><ele>235.0</ele><time>2026-04-12T12:17:12.961Z</time></trkpt><trkpt lat="41.1778189" lon="1.0596335"><ele>234.99999999999997</ele><time>2026-04-12T12:17:13.961Z</time></trkpt><trkpt lat="41.1777813" lon="1.0597144"><ele>235.0</ele><time>2026-04-12T12:17:14.961Z</time></trkpt><trkpt lat="41.1777326" lon="1.059806"><ele>235.0</ele><time>2026-04-12T12:17:15.959Z</time></trkpt><trkpt lat="41.1776906" lon="1.0599002"><ele>234.33333333333331</ele><time>2026-04-12T12:17:16.961Z</time></trkpt><trkpt lat="41.177645" lon="1.0599994"><ele>233.66666666666666</ele><time>2026-04-12T12:17:17.96Z</time></trkpt><trkpt lat="41.1776016" lon="1.0600938"><ele>233.0</ele><time>2026-04-12T12:17:18.96Z</time></trkpt><trkpt lat="41.1775627" lon="1.060185"><ele>232.33333333333331</ele><time>2026-04-12T12:17:19.961Z</time></trkpt><trkpt lat="41.1775175" lon="1.0602786"><ele>231.66666666666666</ele><time>2026-04-12T12:17:20.959Z</time></trkpt><trkpt lat="41.1774639" lon="1.0603787"><ele>231.0</ele><time>2026-04-12T12:17:21.96Z</time></trkpt><trkpt lat="41.1774178" lon="1.060469"><ele>231.0</ele><time>2026-04-12T12:17:22.96Z</time></trkpt><trkpt lat="41.177375" lon="1.0605692"><ele>231.0</ele><time>2026-04-12T12:17:23.96Z</time></trkpt><trkpt lat="41.1773365" lon="1.0606648"><ele>231.0</ele><time>2026-04-12T12:17:24.961Z</time></trkpt><trkpt lat="41.1773071" lon="1.060758"><ele>231.0</ele><time>2026-04-12T12:17:25.961Z</time></trkpt><trkpt lat="41.1772851" lon="1.0608576"><ele>231.0</ele><time>2026-04-12T12:17:26.961Z</time></trkpt><trkpt lat="41.1772661" lon="1.0609623"><ele>231.0</ele><time>2026-04-12T12:17:27.961Z</time></trkpt><trkpt lat="41.1772563" lon="1.0610773"><ele>228.83333333333334</ele><time>2026-04-12T12:17:28.961Z</time></trkpt><trkpt lat="41.1772557" lon="1.0611803"><ele>226.66666666666669</ele><time>2026-04-12T12:17:29.96Z</time></trkpt><trkpt lat="41.1772546" lon="1.061291"><ele>224.5</ele><time>2026-04-12T12:17:30.96Z</time></trkpt><trkpt lat="41.1772576" lon="1.0614047"><ele>222.33333333333334</ele><time>2026-04-12T12:17:31.961Z</time></trkpt><trkpt lat="41.1772757" lon="1.0615126"><ele>220.16666666666669</ele><time>2026-04-12T12:17:32.96Z</time></trkpt><trkpt lat="41.1772901" lon="1.0616167"><ele>218.0</ele><time>2026-04-12T12:17:33.961Z</time></trkpt><trkpt lat="41.1773061" lon="1.0617206"><ele>217.71428571428572</ele><time>2026-04-12T12:17:34.96Z</time></trkpt><trkpt lat="41.177316" lon="1.0618214"><ele>217.42857142857144</ele><time>2026-04-12T12:17:35.961Z</time></trkpt><trkpt lat="41.1773164" lon="1.0619113"><ele>217.14285714285714</ele><time>2026-04-12T12:17:36.961Z</time></trkpt><trkpt lat="41.1772998" lon="1.0620012"><ele>216.85714285714286</ele><time>2026-04-12T12:17:37.961Z</time></trkpt><trkpt lat="41.1772769" lon="1.0620811"><ele>216.57142857142856</ele><time>2026-04-12T12:17:38.961Z</time></trkpt><trkpt lat="41.1772346" lon="1.062147"><ele>216.28571428571428</ele><time>2026-04-12T12:17:39.961Z</time></trkpt><trkpt lat="41.1771907" lon="1.0622168"><ele>216.0</ele><time>2026-04-12T12:17:40.96Z</time></trkpt><trkpt lat="41.1771154" lon="1.0623073"><ele>216.0</ele><time>2026-04-12T12:17:42.961Z</time></trkpt><trkpt lat="41.1770365" lon="1.062387"><ele>216.00000000000003</ele><time>2026-04-12T12:17:44.961Z</time></trkpt><trkpt lat="41.1769332" lon="1.0624334"><ele>216.00000000000003</ele><time>2026-04-12T12:17:46.961Z</time></trkpt><trkpt lat="41.17684" lon="1.0624791"><ele>216.0</ele><time>2026-04-12T12:17:48.961Z</time></trkpt><trkpt lat="41.1767705" lon="1.0625302"><ele>216.0</ele><time>2026-04-12T12:17:50.961Z</time></trkpt><trkpt lat="41.1767087" lon="1.0626009"><ele>216.60000000000002</ele><time>2026-04-12T12:17:52.96Z</time></trkpt><trkpt lat="41.1766545" lon="1.0626705"><ele>217.20000000000002</ele><time>2026-04-12T12:17:54.961Z</time></trkpt><trkpt lat="41.1765942" lon="1.0627487"><ele>217.79999999999998</ele><time>2026-04-12T12:17:56.961Z</time></trkpt><trkpt lat="41.1765195" lon="1.0628366"><ele>218.39999999999998</ele><time>2026-04-12T12:17:58.96Z</time></trkpt><trkpt lat="41.1764368" lon="1.0629402"><ele>219.0</ele><time>2026-04-12T12:18:00.96Z</time></trkpt><trkpt lat="41.1763577" lon="1.0630614"><ele>218.16666666666666</ele><time>2026-04-12T12:18:02.961Z</time></trkpt><trkpt lat="41.1763349" lon="1.0632234"><ele>217.33333333333331</ele><time>2026-04-12T12:18:04.959Z</time></trkpt><trkpt lat="41.1763317" lon="1.0633087"><ele>216.5</ele><time>2026-04-12T12:18:05.961Z</time></trkpt><trkpt lat="41.1763246" lon="1.0633939"><ele>215.66666666666666</ele><time>2026-04-12T12:18:06.96Z</time></trkpt><trkpt lat="41.1763199" lon="1.0634895"><ele>214.83333333333331</ele><time>2026-04-12T12:18:07.961Z</time></trkpt><trkpt lat="41.176308" lon="1.063648"><ele>214.0</ele><time>2026-04-12T12:18:09.96Z</time></trkpt><trkpt lat="41.1763033" lon="1.0638076"><ele>214.0</ele><time>2026-04-12T12:18:11.961Z</time></trkpt><trkpt lat="41.1763048" lon="1.0639658"><ele>213.99999999999997</ele><time>2026-04-12T12:18:13.961Z</time></trkpt><trkpt lat="41.1763172" lon="1.0641192"><ele>213.99999999999997</ele><time>2026-04-12T12:18:15.96Z</time></trkpt><trkpt lat="41.1762994" lon="1.0642671"><ele>214.0</ele><time>2026-04-12T12:18:17.959Z</time></trkpt><trkpt lat="41.1762702" lon="1.0643415"><ele>214.0</ele><time>2026-04-12T12:18:18.96Z</time></trkpt><trkpt lat="41.1762048" lon="1.0644513"><ele>214.79999999999998</ele><time>2026-04-12T12:18:20.961Z</time></trkpt><trkpt lat="41.1761217" lon="1.0645332"><ele>215.59999999999997</ele><time>2026-04-12T12:18:22.96Z</time></trkpt><trkpt lat="41.1760329" lon="1.0645892"><ele>216.4</ele><time>2026-04-12T12:18:24.96Z</time></trkpt><trkpt lat="41.1759529" lon="1.0645671"><ele>217.2</ele><time>2026-04-12T12:18:26.959Z</time></trkpt><trkpt lat="41.17587" lon="1.0644954"><ele>218.0</ele><time>2026-04-12T12:18:28.96Z</time></trkpt><trkpt lat="41.1758127" lon="1.064365"><ele>218.00000000000003</ele><time>2026-04-12T12:18:30.96Z</time></trkpt><trkpt lat="41.1757279" lon="1.0642329"><ele>218.0</ele><time>2026-04-12T12:18:32.96Z</time></trkpt><trkpt lat="41.1756773" lon="1.0641493"><ele>218.0</ele><time>2026-04-12T12:18:33.961Z</time></trkpt><trkpt lat="41.1756331" lon="1.0640836"><ele>218.0</ele><time>2026-04-12T12:18:34.961Z</time></trkpt><trkpt lat="41.17559" lon="1.0640132"><ele>218.00000000000003</ele><time>2026-04-12T12:18:35.96Z</time></trkpt><trkpt lat="41.1755415" lon="1.0639575"><ele>218.0</ele><time>2026-04-12T12:18:36.96Z</time></trkpt><trkpt lat="41.1754895" lon="1.0639044"><ele>216.2</ele><time>2026-04-12T12:18:37.959Z</time></trkpt><trkpt lat="41.1753948" lon="1.0637878"><ele>214.4</ele><time>2026-04-12T12:18:39.958Z</time></trkpt><trkpt lat="41.1753035" lon="1.0637062"><ele>212.6</ele><time>2026-04-12T12:18:41.961Z</time></trkpt><trkpt lat="41.1752072" lon="1.0636668"><ele>210.79999999999998</ele><time>2026-04-12T12:18:43.96Z</time></trkpt><trkpt lat="41.1751011" lon="1.0636845"><ele>209.0</ele><time>2026-04-12T12:18:45.96Z</time></trkpt><trkpt lat="41.1750114" lon="1.0637324"><ele>209.0</ele><time>2026-04-12T12:18:47.96Z</time></trkpt><trkpt lat="41.1749301" lon="1.0638253"><ele>209.0</ele><time>2026-04-12T12:18:49.96Z</time></trkpt><trkpt lat="41.1748879" lon="1.0639134"><ele>209.0</ele><time>2026-04-12T12:18:51.961Z</time></trkpt><trkpt lat="41.1748336" lon="1.0640159"><ele>209.0</ele><time>2026-04-12T12:18:53.959Z</time></trkpt><trkpt lat="41.1747843" lon="1.0641286"><ele>209.0</ele><time>2026-04-12T12:18:55.961Z</time></trkpt><trkpt lat="41.1747588" lon="1.0642379"><ele>209.5</ele><time>2026-04-12T12:18:57.959Z</time></trkpt><trkpt lat="41.1747275" lon="1.0643669"><ele>210.0</ele><time>2026-04-12T12:18:59.961Z</time></trkpt><trkpt lat="41.1746944" lon="1.0645123"><ele>210.5</ele><time>2026-04-12T12:19:01.96Z</time></trkpt><trkpt lat="41.1746519" lon="1.0646692"><ele>211.0</ele><time>2026-04-12T12:19:03.96Z</time></trkpt><trkpt lat="41.1745674" lon="1.0647962"><ele>210.99999999999997</ele><time>2026-04-12T12:19:05.96Z</time></trkpt><trkpt lat="41.1745095" lon="1.0648541"><ele>211.0</ele><time>2026-04-12T12:19:06.961Z</time></trkpt><trkpt lat="41.1744647" lon="1.0649208"><ele>211.0</ele><time>2026-04-12T12:19:07.961Z</time></trkpt><trkpt lat="41.1744161" lon="1.064982"><ele>211.0</ele><time>2026-04-12T12:19:08.961Z</time></trkpt><trkpt lat="41.1743209" lon="1.0650888"><ele>210.99999999999997</ele><time>2026-04-12T12:19:10.959Z</time></trkpt><trkpt lat="41.1742714" lon="1.0651445"><ele>211.0</ele><time>2026-04-12T12:19:11.959Z</time></trkpt><trkpt lat="41.174179" lon="1.0652537"><ele>210.5</ele><time>2026-04-12T12:19:13.96Z</time></trkpt><trkpt lat="41.1740959" lon="1.0653617"><ele>210.0</ele><time>2026-04-12T12:19:15.959Z</time></trkpt><trkpt lat="41.1740151" lon="1.0654678"><ele>209.5</ele><time>2026-04-12T12:19:17.959Z</time></trkpt><trkpt lat="41.1739333" lon="1.0655763"><ele>209.0</ele><time>2026-04-12T12:19:19.959Z</time></trkpt><trkpt lat="41.1738536" lon="1.0656903"><ele>210.0</ele><time>2026-04-12T12:19:21.96Z</time></trkpt><trkpt lat="41.173764" lon="1.0657992"><ele>211.0</ele><time>2026-04-12T12:19:23.96Z</time></trkpt><trkpt lat="41.1736745" lon="1.0658934"><ele>211.99999999999997</ele><time>2026-04-12T12:19:25.959Z</time></trkpt><trkpt lat="41.1735997" lon="1.0659973"><ele>213.0</ele><time>2026-04-12T12:19:27.959Z</time></trkpt><trkpt lat="41.1735199" lon="1.0660712"><ele>214.0</ele><time>2026-04-12T12:19:29.959Z</time></trkpt><trkpt lat="41.1734623" lon="1.0661644"><ele>214.00000000000003</ele><time>2026-04-12T12:19:31.96Z</time></trkpt><trkpt lat="41.1734738" lon="1.066258"><ele>214.0</ele><time>2026-04-12T12:19:33.959Z</time></trkpt><trkpt lat="41.17353" lon="1.0663252"><ele>214.0</ele><time>2026-04-12T12:19:36.959Z</time></trkpt><trkpt lat="41.1735895" lon="1.0663825"><ele>214.0</ele><time>2026-04-12T12:19:39.96Z</time></trkpt><trkpt lat="41.173646" lon="1.0664536"><ele>214.0</ele><time>2026-04-12T12:19:42.959Z</time></trkpt><trkpt lat="41.1737065" lon="1.0665171"><ele>214.00000000000003</ele><time>2026-04-12T12:19:46.961Z</time></trkpt><trkpt lat="41.1737611" lon="1.0665794"><ele>214.0</ele><time>2026-04-12T12:19:51.96Z</time></trkpt><trkpt lat="41.1737877" lon="1.0666565"><ele>214.2</ele><time>2026-04-12T12:19:55.961Z</time></trkpt><trkpt lat="41.1737199" lon="1.0667482"><ele>214.39999999999998</ele><time>2026-04-12T12:19:59.96Z</time></trkpt><trkpt lat="41.1736341" lon="1.0668129"><ele>214.6</ele><time>2026-04-12T12:20:01.961Z</time></trkpt><trkpt lat="41.1735377" lon="1.0668946"><ele>214.8</ele><time>2026-04-12T12:20:03.959Z</time></trkpt><trkpt lat="41.1734825" lon="1.0669506"><ele>215.0</ele><time>2026-04-12T12:20:04.96Z</time></trkpt><trkpt lat="41.1734277" lon="1.0670156"><ele>215.00000000000003</ele><time>2026-04-12T12:20:05.961Z</time></trkpt><trkpt lat="41.1733504" lon="1.0670718"><ele>215.0</ele><time>2026-04-12T12:20:06.959Z</time></trkpt><trkpt lat="41.1732801" lon="1.0671263"><ele>215.0</ele><time>2026-04-12T12:20:07.96Z</time></trkpt><trkpt lat="41.1732053" lon="1.0671791"><ele>215.0</ele><time>2026-04-12T12:20:08.961Z</time></trkpt><trkpt lat="41.1731482" lon="1.0672562"><ele>215.00000000000003</ele><time>2026-04-12T12:20:09.96Z</time></trkpt><trkpt lat="41.1730937" lon="1.0673299"><ele>215.0</ele><time>2026-04-12T12:20:10.96Z</time></trkpt><trkpt lat="41.173035" lon="1.0674113"><ele>212.83333333333334</ele><time>2026-04-12T12:20:11.961Z</time></trkpt><trkpt lat="41.1729763" lon="1.0674917"><ele>210.66666666666669</ele><time>2026-04-12T12:20:12.96Z</time></trkpt><trkpt lat="41.1729311" lon="1.067577"><ele>208.5</ele><time>2026-04-12T12:20:13.96Z</time></trkpt><trkpt lat="41.1728742" lon="1.0676542"><ele>206.33333333333331</ele><time>2026-04-12T12:20:14.96Z</time></trkpt><trkpt lat="41.172816" lon="1.0677286"><ele>204.16666666666666</ele><time>2026-04-12T12:20:15.961Z</time></trkpt><trkpt lat="41.1727684" lon="1.0677995"><ele>202.0</ele><time>2026-04-12T12:20:16.961Z</time></trkpt><trkpt lat="41.1727039" lon="1.0678647"><ele>201.99999999999997</ele><time>2026-04-12T12:20:17.961Z</time></trkpt><trkpt lat="41.1726491" lon="1.0679427"><ele>202.0</ele><time>2026-04-12T12:20:18.961Z</time></trkpt><trkpt lat="41.1726109" lon="1.0680211"><ele>202.0</ele><time>2026-04-12T12:20:19.961Z</time></trkpt><trkpt lat="41.1725507" lon="1.0681586"><ele>202.0</ele><time>2026-04-12T12:20:21.961Z</time></trkpt><trkpt lat="41.1725273" lon="1.06824"><ele>201.99999999999997</ele><time>2026-04-12T12:20:22.96Z</time></trkpt><trkpt lat="41.1725046" lon="1.0683764"><ele>202.0</ele><time>2026-04-12T12:20:24.96Z</time></trkpt><trkpt lat="41.1724565" lon="1.0685393"><ele>200.8</ele><time>2026-04-12T12:20:26.961Z</time></trkpt><trkpt lat="41.1724484" lon="1.0686442"><ele>199.6</ele><time>2026-04-12T12:20:27.958Z</time></trkpt><trkpt lat="41.1724313" lon="1.0688069"><ele>198.4</ele><time>2026-04-12T12:20:29.959Z</time></trkpt><trkpt lat="41.1724143" lon="1.0689233"><ele>197.20000000000002</ele><time>2026-04-12T12:20:31.961Z</time></trkpt><trkpt lat="41.1723177" lon="1.0689881"><ele>196.0</ele><time>2026-04-12T12:20:33.961Z</time></trkpt><trkpt lat="41.1722159" lon="1.0690276"><ele>195.99999999999997</ele><time>2026-04-12T12:20:35.96Z</time></trkpt><trkpt lat="41.172124" lon="1.0690921"><ele>196.0</ele><time>2026-04-12T12:20:37.961Z</time></trkpt><trkpt lat="41.1720486" lon="1.0691738"><ele>196.0</ele><time>2026-04-12T12:20:39.96Z</time></trkpt><trkpt lat="41.1719865" lon="1.0692583"><ele>196.0</ele><time>2026-04-12T12:20:41.959Z</time></trkpt><trkpt lat="41.1719808" lon="1.069358"><ele>195.99999999999997</ele><time>2026-04-12T12:20:43.96Z</time></trkpt><trkpt lat="41.1720048" lon="1.0694603"><ele>196.0</ele><time>2026-04-12T12:20:45.959Z</time></trkpt><trkpt lat="41.1720331" lon="1.0695672"><ele>194.83333333333331</ele><time>2026-04-12T12:20:47.959Z</time></trkpt><trkpt lat="41.172058" lon="1.0696724"><ele>193.66666666666666</ele><time>2026-04-12T12:20:49.96Z</time></trkpt><trkpt lat="41.1720861" lon="1.0697732"><ele>192.5</ele><time>2026-04-12T12:20:51.959Z</time></trkpt><trkpt lat="41.1721145" lon="1.0698739"><ele>191.33333333333331</ele><time>2026-04-12T12:20:53.959Z</time></trkpt><trkpt lat="41.172139" lon="1.0699736"><ele>190.16666666666666</ele><time>2026-04-12T12:20:55.96Z</time></trkpt><trkpt lat="41.1721694" lon="1.0700719"><ele>189.0</ele><time>2026-04-12T12:20:57.96Z</time></trkpt><trkpt lat="41.1721968" lon="1.0701736"><ele>188.66666666666666</ele><time>2026-04-12T12:20:59.959Z</time></trkpt><trkpt lat="41.1722274" lon="1.0702758"><ele>188.33333333333334</ele><time>2026-04-12T12:21:01.959Z</time></trkpt><trkpt lat="41.172257" lon="1.0703796"><ele>188.0</ele><time>2026-04-12T12:21:03.96Z</time></trkpt><trkpt lat="41.1722909" lon="1.0704792"><ele>187.66666666666669</ele><time>2026-04-12T12:21:05.96Z</time></trkpt><trkpt lat="41.172329" lon="1.0705654"><ele>187.33333333333334</ele><time>2026-04-12T12:21:07.96Z</time></trkpt><trkpt lat="41.1723623" lon="1.0706659"><ele>187.0</ele><time>2026-04-12T12:21:09.96Z</time></trkpt><trkpt lat="41.1723886" lon="1.0707675"><ele>187.0</ele><time>2026-04-12T12:21:11.96Z</time></trkpt><trkpt lat="41.1723859" lon="1.0708807"><ele>187.0</ele><time>2026-04-12T12:21:13.96Z</time></trkpt><trkpt lat="41.1723406" lon="1.0709395"><ele>187.0</ele><time>2026-04-12T12:21:14.959Z</time></trkpt><trkpt lat="41.1722749" lon="1.0709732"><ele>187.0</ele><time>2026-04-12T12:21:15.96Z</time></trkpt><trkpt lat="41.1722031" lon="1.0709836"><ele>187.0</ele><time>2026-04-12T12:21:16.96Z</time></trkpt><trkpt lat="41.1721293" lon="1.0709806"><ele>187.0</ele><time>2026-04-12T12:21:17.96Z</time></trkpt><trkpt lat="41.1720593" lon="1.0709888"><ele>187.0</ele><time>2026-04-12T12:21:18.96Z</time></trkpt><trkpt lat="41.1719896" lon="1.0709988"><ele>187.0</ele><time>2026-04-12T12:21:19.959Z</time></trkpt><trkpt lat="41.1719207" lon="1.0710113"><ele>187.0</ele><time>2026-04-12T12:21:20.96Z</time></trkpt><trkpt lat="41.1718525" lon="1.0710252"><ele>187.0</ele><time>2026-04-12T12:21:21.959Z</time></trkpt><trkpt lat="41.1717848" lon="1.0710427"><ele>187.0</ele><time>2026-04-12T12:21:22.96Z</time></trkpt><trkpt lat="41.1717116" lon="1.0710607"><ele>187.0</ele><time>2026-04-12T12:21:23.96Z</time></trkpt><trkpt lat="41.1716363" lon="1.0710777"><ele>187.0</ele><time>2026-04-12T12:21:24.96Z</time></trkpt><trkpt lat="41.1715624" lon="1.0710965"><ele>187.0</ele><time>2026-04-12T12:21:25.96Z</time></trkpt><trkpt lat="41.1714859" lon="1.0711178"><ele>186.16666666666669</ele><time>2026-04-12T12:21:26.96Z</time></trkpt><trkpt lat="41.1714132" lon="1.0711382"><ele>185.33333333333334</ele><time>2026-04-12T12:21:27.96Z</time></trkpt><trkpt lat="41.1713386" lon="1.0711568"><ele>184.5</ele><time>2026-04-12T12:21:28.959Z</time></trkpt><trkpt lat="41.1712637" lon="1.0711742"><ele>183.66666666666666</ele><time>2026-04-12T12:21:29.959Z</time></trkpt><trkpt lat="41.1711896" lon="1.0711991"><ele>182.83333333333331</ele><time>2026-04-12T12:21:30.96Z</time></trkpt><trkpt lat="41.1711131" lon="1.0712124"><ele>182.0</ele><time>2026-04-12T12:21:31.959Z</time></trkpt><trkpt lat="41.1710373" lon="1.0712257"><ele>182.0</ele><time>2026-04-12T12:21:32.96Z</time></trkpt><trkpt lat="41.1709644" lon="1.0712398"><ele>182.0</ele><time>2026-04-12T12:21:33.96Z</time></trkpt><trkpt lat="41.1708926" lon="1.071245"><ele>182.0</ele><time>2026-04-12T12:21:34.96Z</time></trkpt><trkpt lat="41.1708192" lon="1.0712617"><ele>182.0</ele><time>2026-04-12T12:21:35.96Z</time></trkpt><trkpt lat="41.1707453" lon="1.0712756"><ele>182.0</ele><time>2026-04-12T12:21:36.959Z</time></trkpt><trkpt lat="41.170674" lon="1.0712925"><ele>182.0</ele><time>2026-04-12T12:21:37.96Z</time></trkpt><trkpt lat="41.1706044" lon="1.0713046"><ele>182.0</ele><time>2026-04-12T12:21:38.96Z</time></trkpt><trkpt lat="41.170534" lon="1.0713189"><ele>181.71428571428572</ele><time>2026-04-12T12:21:39.96Z</time></trkpt><trkpt lat="41.1704665" lon="1.0713301"><ele>181.42857142857144</ele><time>2026-04-12T12:21:40.959Z</time></trkpt><trkpt lat="41.1703991" lon="1.0713425"><ele>181.14285714285714</ele><time>2026-04-12T12:21:41.96Z</time></trkpt><trkpt lat="41.1703318" lon="1.0713544"><ele>180.85714285714286</ele><time>2026-04-12T12:21:42.96Z</time></trkpt><trkpt lat="41.1702647" lon="1.0713595"><ele>180.57142857142858</ele><time>2026-04-12T12:21:43.96Z</time></trkpt><trkpt lat="41.1702006" lon="1.0713759"><ele>180.28571428571428</ele><time>2026-04-12T12:21:44.96Z</time></trkpt><trkpt lat="41.1701387" lon="1.0713958"><ele>180.0</ele><time>2026-04-12T12:21:45.96Z</time></trkpt><trkpt lat="41.1700758" lon="1.0714191"><ele>180.0</ele><time>2026-04-12T12:21:46.959Z</time></trkpt><trkpt lat="41.1699845" lon="1.0714578"><ele>180.0</ele><time>2026-04-12T12:21:48.959Z</time></trkpt><trkpt lat="41.1699613" lon="1.0715455"><ele>180.0</ele><time>2026-04-12T12:21:50.959Z</time></trkpt><trkpt lat="41.1700067" lon="1.0716418"><ele>180.0</ele><time>2026-04-12T12:21:52.96Z</time></trkpt><trkpt lat="41.1700283" lon="1.0717559"><ele>180.0</ele><time>2026-04-12T12:21:54.96Z</time></trkpt><trkpt lat="41.1700158" lon="1.0718788"><ele>180.0</ele><time>2026-04-12T12:21:56.96Z</time></trkpt><trkpt lat="41.1699929" lon="1.0719696"><ele>179.66666666666666</ele><time>2026-04-12T12:21:58.96Z</time></trkpt><trkpt lat="41.1699269" lon="1.0719824"><ele>179.33333333333334</ele><time>2026-04-12T12:21:59.961Z</time></trkpt><trkpt lat="41.1698503" lon="1.0720174"><ele>179.0</ele><time>2026-04-12T12:22:01.961Z</time></trkpt><trkpt lat="41.1697738" lon="1.0720751"><ele>178.66666666666669</ele><time>2026-04-12T12:22:03.96Z</time></trkpt><trkpt lat="41.1696939" lon="1.0721314"><ele>178.33333333333334</ele><time>2026-04-12T12:22:05.96Z</time></trkpt><trkpt lat="41.1696074" lon="1.0721848"><ele>178.0</ele><time>2026-04-12T12:22:07.961Z</time></trkpt><trkpt lat="41.1695085" lon="1.0722344"><ele>177.8</ele><time>2026-04-12T12:22:09.961Z</time></trkpt><trkpt lat="41.1694074" lon="1.0722692"><ele>177.60000000000002</ele><time>2026-04-12T12:22:11.961Z</time></trkpt><trkpt lat="41.1693093" lon="1.0723106"><ele>177.39999999999998</ele><time>2026-04-12T12:22:13.961Z</time></trkpt><trkpt lat="41.1691938" lon="1.0723511"><ele>177.2</ele><time>2026-04-12T12:22:15.961Z</time></trkpt><trkpt lat="41.1690835" lon="1.0724058"><ele>177.0</ele><time>2026-04-12T12:22:17.96Z</time></trkpt><trkpt lat="41.1689829" lon="1.0724553"><ele>177.0</ele><time>2026-04-12T12:22:19.961Z</time></trkpt><trkpt lat="41.1688876" lon="1.0725213"><ele>177.0</ele><time>2026-04-12T12:22:21.96Z</time></trkpt><trkpt lat="41.1687912" lon="1.0725665"><ele>177.0</ele><time>2026-04-12T12:22:23.959Z</time></trkpt><trkpt lat="41.1686875" lon="1.0726203"><ele>177.0</ele><time>2026-04-12T12:22:25.961Z</time></trkpt><trkpt lat="41.1685655" lon="1.0727035"><ele>177.0</ele><time>2026-04-12T12:22:27.959Z</time></trkpt><trkpt lat="41.1685117" lon="1.0728257"><ele>177.0</ele><time>2026-04-12T12:22:29.96Z</time></trkpt><trkpt lat="41.1684429" lon="1.0729452"><ele>177.0</ele><time>2026-04-12T12:22:31.96Z</time></trkpt><trkpt lat="41.1683843" lon="1.0730174"><ele>177.0</ele><time>2026-04-12T12:22:32.96Z</time></trkpt><trkpt lat="41.1683417" lon="1.0730866"><ele>177.0</ele><time>2026-04-12T12:22:33.961Z</time></trkpt><trkpt lat="41.1682888" lon="1.0731641"><ele>177.0</ele><time>2026-04-12T12:22:34.96Z</time></trkpt><trkpt lat="41.1682293" lon="1.0732426"><ele>176.57142857142858</ele><time>2026-04-12T12:22:35.96Z</time></trkpt><trkpt lat="41.1681844" lon="1.07332"><ele>176.14285714285714</ele><time>2026-04-12T12:22:36.96Z</time></trkpt><trkpt lat="41.1681408" lon="1.073394"><ele>175.71428571428572</ele><time>2026-04-12T12:22:37.959Z</time></trkpt><trkpt lat="41.1680989" lon="1.073479"><ele>175.28571428571428</ele><time>2026-04-12T12:22:38.961Z</time></trkpt><trkpt lat="41.1680539" lon="1.0735581"><ele>174.85714285714286</ele><time>2026-04-12T12:22:39.96Z</time></trkpt><trkpt lat="41.1680076" lon="1.0736337"><ele>174.42857142857142</ele><time>2026-04-12T12:22:40.96Z</time></trkpt><trkpt lat="41.167962" lon="1.0737052"><ele>174.0</ele><time>2026-04-12T12:22:41.961Z</time></trkpt><trkpt lat="41.1679198" lon="1.0737731"><ele>174.0</ele><time>2026-04-12T12:22:42.961Z</time></trkpt><trkpt lat="41.1678655" lon="1.0738357"><ele>174.0</ele><time>2026-04-12T12:22:43.96Z</time></trkpt><trkpt lat="41.1678021" lon="1.073886"><ele>174.0</ele><time>2026-04-12T12:22:44.961Z</time></trkpt><trkpt lat="41.167733" lon="1.073906"><ele>174.0</ele><time>2026-04-12T12:22:45.96Z</time></trkpt><trkpt lat="41.1676591" lon="1.0738989"><ele>174.0</ele><time>2026-04-12T12:22:46.961Z</time></trkpt><trkpt lat="41.1675895" lon="1.0738844"><ele>174.0</ele><time>2026-04-12T12:22:47.961Z</time></trkpt><trkpt lat="41.1675252" lon="1.0738657"><ele>174.0</ele><time>2026-04-12T12:22:48.96Z</time></trkpt><trkpt lat="41.1674624" lon="1.0738775"><ele>173.5</ele><time>2026-04-12T12:22:49.961Z</time></trkpt><trkpt lat="41.1673604" lon="1.0739741"><ele>173.0</ele><time>2026-04-12T12:22:51.96Z</time></trkpt><trkpt lat="41.1673113" lon="1.0740339"><ele>172.5</ele><time>2026-04-12T12:22:52.96Z</time></trkpt><trkpt lat="41.1672683" lon="1.0740981"><ele>172.0</ele><time>2026-04-12T12:22:53.96Z</time></trkpt><trkpt lat="41.1672307" lon="1.0741674"><ele>171.5</ele><time>2026-04-12T12:22:54.96Z</time></trkpt><trkpt lat="41.1671899" lon="1.0742383"><ele>171.0</ele><time>2026-04-12T12:22:55.961Z</time></trkpt><trkpt lat="41.1671479" lon="1.0743107"><ele>170.99999999999997</ele><time>2026-04-12T12:22:56.96Z</time></trkpt><trkpt lat="41.167106" lon="1.0743741"><ele>171.0</ele><time>2026-04-12T12:22:57.961Z</time></trkpt><trkpt lat="41.16706" lon="1.0744464"><ele>171.0</ele><time>2026-04-12T12:22:58.961Z</time></trkpt><trkpt lat="41.1670132" lon="1.0745084"><ele>171.0</ele><time>2026-04-12T12:22:59.961Z</time></trkpt><trkpt lat="41.1669631" lon="1.0745651"><ele>171.0</ele><time>2026-04-12T12:23:00.96Z</time></trkpt><trkpt lat="41.166901" lon="1.0746233"><ele>170.99999999999997</ele><time>2026-04-12T12:23:01.96Z</time></trkpt><trkpt lat="41.1668508" lon="1.0746825"><ele>171.0</ele><time>2026-04-12T12:23:02.961Z</time></trkpt><trkpt lat="41.1667554" lon="1.0748008"><ele>171.0</ele><time>2026-04-12T12:23:04.958Z</time></trkpt><trkpt lat="41.1666769" lon="1.07491"><ele>171.0</ele><time>2026-04-12T12:23:06.961Z</time></trkpt><trkpt lat="41.166582" lon="1.0750205"><ele>171.0</ele><time>2026-04-12T12:23:08.961Z</time></trkpt><trkpt lat="41.1665308" lon="1.0750931"><ele>171.0</ele><time>2026-04-12T12:23:09.96Z</time></trkpt><trkpt lat="41.1664798" lon="1.0751546"><ele>171.0</ele><time>2026-04-12T12:23:10.96Z</time></trkpt><trkpt lat="41.1664373" lon="1.0752217"><ele>170.83333333333334</ele><time>2026-04-12T12:23:11.96Z</time></trkpt><trkpt lat="41.1663543" lon="1.0753406"><ele>170.66666666666666</ele><time>2026-04-12T12:23:13.96Z</time></trkpt><trkpt lat="41.1663038" lon="1.0753911"><ele>170.5</ele><time>2026-04-12T12:23:14.961Z</time></trkpt><trkpt lat="41.1662383" lon="1.0754767"><ele>170.33333333333331</ele><time>2026-04-12T12:23:16.961Z</time></trkpt><trkpt lat="41.1661523" lon="1.0755042"><ele>170.16666666666666</ele><time>2026-04-12T12:23:19.96Z</time></trkpt><trkpt lat="41.1660899" lon="1.0754523"><ele>170.0</ele><time>2026-04-12T12:23:21.959Z</time></trkpt><trkpt lat="41.1660259" lon="1.0753871"><ele>170.0</ele><time>2026-04-12T12:23:23.961Z</time></trkpt><trkpt lat="41.1659291" lon="1.0753913"><ele>170.0</ele><time>2026-04-12T12:23:25.96Z</time></trkpt><trkpt lat="41.1658678" lon="1.0754435"><ele>170.0</ele><time>2026-04-12T12:23:28.96Z</time></trkpt><trkpt lat="41.165806" lon="1.0755037"><ele>170.0</ele><time>2026-04-12T12:23:40.961Z</time></trkpt><trkpt lat="41.1657532" lon="1.075551"><ele>170.0</ele><time>2026-04-12T12:23:42.96Z</time></trkpt><trkpt lat="41.165678" lon="1.0756238"><ele>170.0</ele><time>2026-04-12T12:23:44.961Z</time></trkpt><trkpt lat="41.1655957" lon="1.0756972"><ele>169.4</ele><time>2026-04-12T12:23:46.96Z</time></trkpt><trkpt lat="41.1655095" lon="1.0757975"><ele>168.8</ele><time>2026-04-12T12:23:48.961Z</time></trkpt><trkpt lat="41.1654102" lon="1.0758944"><ele>168.2</ele><time>2026-04-12T12:23:50.961Z</time></trkpt><trkpt lat="41.1652957" lon="1.0759839"><ele>167.6</ele><time>2026-04-12T12:23:52.96Z</time></trkpt><trkpt lat="41.1652394" lon="1.0760409"><ele>167.0</ele><time>2026-04-12T12:23:53.961Z</time></trkpt><trkpt lat="41.1651785" lon="1.0760918"><ele>167.0</ele><time>2026-04-12T12:23:54.961Z</time></trkpt><trkpt lat="41.1651196" lon="1.0761454"><ele>167.0</ele><time>2026-04-12T12:23:55.96Z</time></trkpt><trkpt lat="41.1650533" lon="1.0762018"><ele>167.0</ele><time>2026-04-12T12:23:56.961Z</time></trkpt><trkpt lat="41.1649811" lon="1.0762526"><ele>167.0</ele><time>2026-04-12T12:23:57.961Z</time></trkpt><trkpt lat="41.1649179" lon="1.0763064"><ele>167.0</ele><time>2026-04-12T12:23:58.96Z</time></trkpt><trkpt lat="41.164858" lon="1.0763592"><ele>167.0</ele><time>2026-04-12T12:23:59.961Z</time></trkpt><trkpt lat="41.1647943" lon="1.076413"><ele>166.33333333333331</ele><time>2026-04-12T12:24:00.96Z</time></trkpt><trkpt lat="41.1647297" lon="1.0764712"><ele>165.66666666666666</ele><time>2026-04-12T12:24:01.961Z</time></trkpt><trkpt lat="41.1646706" lon="1.0765354"><ele>165.0</ele><time>2026-04-12T12:24:02.96Z</time></trkpt><trkpt lat="41.164607" lon="1.0765896"><ele>164.33333333333334</ele><time>2026-04-12T12:24:03.96Z</time></trkpt><trkpt lat="41.1645491" lon="1.0766442"><ele>163.66666666666669</ele><time>2026-04-12T12:24:04.96Z</time></trkpt><trkpt lat="41.1644847" lon="1.0767104"><ele>163.0</ele><time>2026-04-12T12:24:05.961Z</time></trkpt><trkpt lat="41.1644313" lon="1.076775"><ele>163.0</ele><time>2026-04-12T12:24:06.961Z</time></trkpt><trkpt lat="41.1643816" lon="1.0768463"><ele>163.0</ele><time>2026-04-12T12:24:07.959Z</time></trkpt><trkpt lat="41.1643439" lon="1.0769266"><ele>163.0</ele><time>2026-04-12T12:24:08.961Z</time></trkpt><trkpt lat="41.1643136" lon="1.0770021"><ele>163.0</ele><time>2026-04-12T12:24:09.96Z</time></trkpt><trkpt lat="41.1642824" lon="1.0771197"><ele>163.0</ele><time>2026-04-12T12:24:11.961Z</time></trkpt><trkpt lat="41.1642348" lon="1.0771919"><ele>163.0</ele><time>2026-04-12T12:24:13.961Z</time></trkpt><trkpt lat="41.1641526" lon="1.0772099"><ele>163.0</ele><time>2026-04-12T12:24:15.961Z</time></trkpt><trkpt lat="41.1640607" lon="1.0771919"><ele>163.0</ele><time>2026-04-12T12:24:17.96Z</time></trkpt><trkpt lat="41.163953" lon="1.0772165"><ele>163.0</ele><time>2026-04-12T12:24:19.96Z</time></trkpt><trkpt lat="41.1638555" lon="1.0772452"><ele>163.0</ele><time>2026-04-12T12:24:21.961Z</time></trkpt><trkpt lat="41.1637431" lon="1.0773034"><ele>163.0</ele><time>2026-04-12T12:24:23.961Z</time></trkpt><trkpt lat="41.1636705" lon="1.0773348"><ele>162.33333333333334</ele><time>2026-04-12T12:24:24.961Z</time></trkpt><trkpt lat="41.1636098" lon="1.0773865"><ele>161.66666666666669</ele><time>2026-04-12T12:24:25.961Z</time></trkpt><trkpt lat="41.1635374" lon="1.077448"><ele>161.0</ele><time>2026-04-12T12:24:26.961Z</time></trkpt><trkpt lat="41.1634691" lon="1.0775032"><ele>160.33333333333334</ele><time>2026-04-12T12:24:27.961Z</time></trkpt><trkpt lat="41.1633838" lon="1.0775671"><ele>159.66666666666666</ele><time>2026-04-12T12:24:28.96Z</time></trkpt><trkpt lat="41.1632947" lon="1.0776486"><ele>159.0</ele><time>2026-04-12T12:24:29.961Z</time></trkpt><trkpt lat="41.1632395" lon="1.0777015"><ele>158.4</ele><time>2026-04-12T12:24:30.961Z</time></trkpt><trkpt lat="41.1632377" lon="1.0777878"><ele>157.8</ele><time>2026-04-12T12:24:31.96Z</time></trkpt><trkpt lat="41.1631841" lon="1.0778403"><ele>157.2</ele><time>2026-04-12T12:24:32.96Z</time></trkpt><trkpt lat="41.1631356" lon="1.0779774"><ele>156.6</ele><time>2026-04-12T12:24:34.961Z</time></trkpt><trkpt lat="41.1629599" lon="1.0780596"><ele>156.0</ele><time>2026-04-12T12:24:35.961Z</time></trkpt><trkpt lat="41.1628704" lon="1.0781367"><ele>155.33333333333334</ele><time>2026-04-12T12:24:36.961Z</time></trkpt><trkpt lat="41.1627886" lon="1.0781947"><ele>154.66666666666666</ele><time>2026-04-12T12:24:37.961Z</time></trkpt><trkpt lat="41.162699" lon="1.0782497"><ele>154.0</ele><time>2026-04-12T12:24:38.962Z</time></trkpt><trkpt lat="41.1626183" lon="1.0783317"><ele>153.33333333333331</ele><time>2026-04-12T12:24:39.961Z</time></trkpt><trkpt lat="41.1625645" lon="1.0783967"><ele>152.66666666666666</ele><time>2026-04-12T12:24:40.96Z</time></trkpt><trkpt lat="41.1625183" lon="1.0784815"><ele>152.0</ele><time>2026-04-12T12:24:41.961Z</time></trkpt><trkpt lat="41.1624752" lon="1.0785524"><ele>152.0</ele><time>2026-04-12T12:24:42.96Z</time></trkpt><trkpt lat="41.1624025" lon="1.0786271"><ele>152.0</ele><time>2026-04-12T12:24:43.96Z</time></trkpt><trkpt lat="41.1623003" lon="1.0786341"><ele>152.0</ele><time>2026-04-12T12:24:46.961Z</time></trkpt><trkpt lat="41.1622179" lon="1.078734"><ele>152.0</ele><time>2026-04-12T12:24:48.961Z</time></trkpt><trkpt lat="41.1621332" lon="1.0787978"><ele>152.0</ele><time>2026-04-12T12:24:49.961Z</time></trkpt><trkpt lat="41.162048" lon="1.0788445"><ele>152.0</ele><time>2026-04-12T12:24:50.96Z</time></trkpt><trkpt lat="41.1619563" lon="1.0789295"><ele>152.0</ele><time>2026-04-12T12:24:52.961Z</time></trkpt><trkpt lat="41.1618519" lon="1.0789723"><ele>152.0</ele><time>2026-04-12T12:24:53.961Z</time></trkpt><trkpt lat="41.161786" lon="1.0790185"><ele>152.0</ele><time>2026-04-12T12:24:54.96Z</time></trkpt><trkpt lat="41.1616951" lon="1.079108"><ele>152.0</ele><time>2026-04-12T12:24:56.961Z</time></trkpt><trkpt lat="41.1616233" lon="1.0791653"><ele>151.83333333333331</ele><time>2026-04-12T12:24:58.961Z</time></trkpt><trkpt lat="41.1615675" lon="1.0792206"><ele>151.66666666666666</ele><time>2026-04-12T12:25:04.961Z</time></trkpt><trkpt lat="41.1615304" lon="1.0792976"><ele>151.5</ele><time>2026-04-12T12:25:08.961Z</time></trkpt><trkpt lat="41.161474" lon="1.0793588"><ele>151.33333333333334</ele><time>2026-04-12T12:25:11.96Z</time></trkpt><trkpt lat="41.1614102" lon="1.0794531"><ele>151.16666666666669</ele><time>2026-04-12T12:25:13.96Z</time></trkpt><trkpt lat="41.1613773" lon="1.0795755"><ele>151.0</ele><time>2026-04-12T12:25:15.96Z</time></trkpt><trkpt lat="41.1613364" lon="1.0797094"><ele>150.5</ele><time>2026-04-12T12:25:17.96Z</time></trkpt><trkpt lat="41.1612954" lon="1.0798552"><ele>150.0</ele><time>2026-04-12T12:25:19.96Z</time></trkpt><trkpt lat="41.1612691" lon="1.0800105"><ele>149.5</ele><time>2026-04-12T12:25:21.96Z</time></trkpt><trkpt lat="41.1612462" lon="1.080094"><ele>149.0</ele><time>2026-04-12T12:25:22.961Z</time></trkpt><trkpt lat="41.1612272" lon="1.0801744"><ele>148.5</ele><time>2026-04-12T12:25:23.961Z</time></trkpt><trkpt lat="41.1611982" lon="1.0802627"><ele>148.0</ele><time>2026-04-12T12:25:24.961Z</time></trkpt><trkpt lat="41.1611659" lon="1.0803463"><ele>147.85714285714286</ele><time>2026-04-12T12:25:25.961Z</time></trkpt><trkpt lat="41.1611438" lon="1.0804337"><ele>147.71428571428572</ele><time>2026-04-12T12:25:26.961Z</time></trkpt><trkpt lat="41.1611229" lon="1.0805193"><ele>147.57142857142856</ele><time>2026-04-12T12:25:27.96Z</time></trkpt><trkpt lat="41.1610979" lon="1.0806052"><ele>147.42857142857144</ele><time>2026-04-12T12:25:28.961Z</time></trkpt><trkpt lat="41.1610768" lon="1.0806895"><ele>147.28571428571428</ele><time>2026-04-12T12:25:29.961Z</time></trkpt><trkpt lat="41.1610528" lon="1.080771"><ele>147.14285714285714</ele><time>2026-04-12T12:25:30.96Z</time></trkpt><trkpt lat="41.1610332" lon="1.0808552"><ele>147.0</ele><time>2026-04-12T12:25:31.961Z</time></trkpt><trkpt lat="41.1610008" lon="1.0809369"><ele>147.0</ele><time>2026-04-12T12:25:32.961Z</time></trkpt><trkpt lat="41.1609717" lon="1.0810213"><ele>147.0</ele><time>2026-04-12T12:25:33.961Z</time></trkpt><trkpt lat="41.1609407" lon="1.0810947"><ele>147.0</ele><time>2026-04-12T12:25:34.961Z</time></trkpt><trkpt lat="41.1609171" lon="1.0811723"><ele>147.0</ele><time>2026-04-12T12:25:35.961Z</time></trkpt><trkpt lat="41.1608812" lon="1.0812424"><ele>147.0</ele><time>2026-04-12T12:25:36.961Z</time></trkpt><trkpt lat="41.1608141" lon="1.0812919"><ele>147.0</ele><time>2026-04-12T12:25:37.96Z</time></trkpt><trkpt lat="41.1607518" lon="1.0813373"><ele>147.0</ele><time>2026-04-12T12:25:38.961Z</time></trkpt><trkpt lat="41.1606926" lon="1.0813923"><ele>146.4</ele><time>2026-04-12T12:25:39.96Z</time></trkpt><trkpt lat="41.1606489" lon="1.0814615"><ele>145.79999999999998</ele><time>2026-04-12T12:25:40.96Z</time></trkpt><trkpt lat="41.1606254" lon="1.0815437"><ele>145.2</ele><time>2026-04-12T12:25:41.961Z</time></trkpt><trkpt lat="41.1606123" lon="1.0816274"><ele>144.6</ele><time>2026-04-12T12:25:42.961Z</time></trkpt><trkpt lat="41.1606319" lon="1.0817953"><ele>144.0</ele><time>2026-04-12T12:25:44.96Z</time></trkpt><trkpt lat="41.1606641" lon="1.0819631"><ele>143.71428571428572</ele><time>2026-04-12T12:25:46.961Z</time></trkpt><trkpt lat="41.1606681" lon="1.0820565"><ele>143.42857142857144</ele><time>2026-04-12T12:25:47.961Z</time></trkpt><trkpt lat="41.1606602" lon="1.0821441"><ele>143.14285714285714</ele><time>2026-04-12T12:25:48.959Z</time></trkpt><trkpt lat="41.1606464" lon="1.0822328"><ele>142.85714285714286</ele><time>2026-04-12T12:25:49.961Z</time></trkpt><trkpt lat="41.1606149" lon="1.0823231"><ele>142.57142857142856</ele><time>2026-04-12T12:25:50.961Z</time></trkpt><trkpt lat="41.1606002" lon="1.0824119"><ele>142.28571428571428</ele><time>2026-04-12T12:25:51.961Z</time></trkpt><trkpt lat="41.1605783" lon="1.0824966"><ele>142.0</ele><time>2026-04-12T12:25:52.96Z</time></trkpt><trkpt lat="41.1605547" lon="1.0825802"><ele>142.0</ele><time>2026-04-12T12:25:53.962Z</time></trkpt><trkpt lat="41.1605395" lon="1.082674"><ele>142.0</ele><time>2026-04-12T12:25:54.961Z</time></trkpt><trkpt lat="41.1605239" lon="1.082758"><ele>142.0</ele><time>2026-04-12T12:25:55.96Z</time></trkpt><trkpt lat="41.1604894" lon="1.0828507"><ele>142.0</ele><time>2026-04-12T12:25:56.961Z</time></trkpt><trkpt lat="41.1604578" lon="1.0829526"><ele>142.0</ele><time>2026-04-12T12:25:57.96Z</time></trkpt><trkpt lat="41.1604369" lon="1.0830438"><ele>142.0</ele><time>2026-04-12T12:25:58.961Z</time></trkpt><trkpt lat="41.1604138" lon="1.0831426"><ele>142.0</ele><time>2026-04-12T12:25:59.961Z</time></trkpt><trkpt lat="41.1603901" lon="1.0832345"><ele>142.0</ele><time>2026-04-12T12:26:00.961Z</time></trkpt><trkpt lat="41.1603669" lon="1.0833221"><ele>142.0</ele><time>2026-04-12T12:26:01.961Z</time></trkpt><trkpt lat="41.1603369" lon="1.0834221"><ele>142.0</ele><time>2026-04-12T12:26:02.961Z</time></trkpt><trkpt lat="41.1603124" lon="1.0835222"><ele>142.0</ele><time>2026-04-12T12:26:03.961Z</time></trkpt><trkpt lat="41.1602898" lon="1.0836186"><ele>142.0</ele><time>2026-04-12T12:26:04.961Z</time></trkpt><trkpt lat="41.1602729" lon="1.0837246"><ele>142.0</ele><time>2026-04-12T12:26:05.961Z</time></trkpt><trkpt lat="41.1602442" lon="1.0838224"><ele>142.0</ele><time>2026-04-12T12:26:06.96Z</time></trkpt><trkpt lat="41.1602221" lon="1.0839092"><ele>142.0</ele><time>2026-04-12T12:26:07.96Z</time></trkpt><trkpt lat="41.1601854" lon="1.0840132"><ele>142.0</ele><time>2026-04-12T12:26:08.961Z</time></trkpt><trkpt lat="41.1601557" lon="1.0841097"><ele>142.0</ele><time>2026-04-12T12:26:09.961Z</time></trkpt><trkpt lat="41.1601384" lon="1.0842014"><ele>142.0</ele><time>2026-04-12T12:26:10.961Z</time></trkpt><trkpt lat="41.160112" lon="1.0842962"><ele>142.0</ele><time>2026-04-12T12:26:11.96Z</time></trkpt><trkpt lat="41.1600855" lon="1.0843993"><ele>141.83333333333334</ele><time>2026-04-12T12:26:12.961Z</time></trkpt><trkpt lat="41.1600571" lon="1.084498"><ele>141.66666666666669</ele><time>2026-04-12T12:26:13.961Z</time></trkpt><trkpt lat="41.1600281" lon="1.084598"><ele>141.5</ele><time>2026-04-12T12:26:14.96Z</time></trkpt><trkpt lat="41.1600039" lon="1.0846926"><ele>141.33333333333334</ele><time>2026-04-12T12:26:15.961Z</time></trkpt><trkpt lat="41.1599771" lon="1.0847926"><ele>141.16666666666666</ele><time>2026-04-12T12:26:16.961Z</time></trkpt><trkpt lat="41.1599647" lon="1.0848801"><ele>141.0</ele><time>2026-04-12T12:26:17.96Z</time></trkpt><trkpt lat="41.1599293" lon="1.0849682"><ele>141.0</ele><time>2026-04-12T12:26:18.961Z</time></trkpt><trkpt lat="41.1598811" lon="1.0850428"><ele>141.0</ele><time>2026-04-12T12:26:19.961Z</time></trkpt><trkpt lat="41.1598269" lon="1.0850951"><ele>141.0</ele><time>2026-04-12T12:26:20.96Z</time></trkpt><trkpt lat="41.1597676" lon="1.0851436"><ele>141.0</ele><time>2026-04-12T12:26:21.961Z</time></trkpt><trkpt lat="41.1597209" lon="1.0852044"><ele>141.0</ele><time>2026-04-12T12:26:22.961Z</time></trkpt><trkpt lat="41.1596845" lon="1.0852731"><ele>141.0</ele><time>2026-04-12T12:26:23.961Z</time></trkpt><trkpt lat="41.1596841" lon="1.0854288"><ele>140.5</ele><time>2026-04-12T12:26:25.961Z</time></trkpt><trkpt lat="41.1597222" lon="1.0855833"><ele>140.0</ele><time>2026-04-12T12:26:27.961Z</time></trkpt><trkpt lat="41.1597251" lon="1.0856678"><ele>139.5</ele><time>2026-04-12T12:26:28.961Z</time></trkpt><trkpt lat="41.1596965" lon="1.085818"><ele>139.0</ele><time>2026-04-12T12:26:30.96Z</time></trkpt><trkpt lat="41.1596797" lon="1.0859017"><ele>138.5</ele><time>2026-04-12T12:26:31.96Z</time></trkpt><trkpt lat="41.159658" lon="1.0859896"><ele>138.0</ele><time>2026-04-12T12:26:32.961Z</time></trkpt><trkpt lat="41.1596423" lon="1.0860731"><ele>138.0</ele><time>2026-04-12T12:26:33.961Z</time></trkpt><trkpt lat="41.1596198" lon="1.0861629"><ele>138.0</ele><time>2026-04-12T12:26:34.961Z</time></trkpt><trkpt lat="41.1595926" lon="1.0862509"><ele>138.0</ele><time>2026-04-12T12:26:35.961Z</time></trkpt><trkpt lat="41.1595652" lon="1.0863441"><ele>138.0</ele><time>2026-04-12T12:26:36.961Z</time></trkpt><trkpt lat="41.1595426" lon="1.0864413"><ele>138.0</ele><time>2026-04-12T12:26:37.96Z</time></trkpt><trkpt lat="41.1595214" lon="1.0865312"><ele>138.0</ele><time>2026-04-12T12:26:38.96Z</time></trkpt><trkpt lat="41.1594986" lon="1.0866314"><ele>138.0</ele><time>2026-04-12T12:26:39.96Z</time></trkpt><trkpt lat="41.1594765" lon="1.0867325"><ele>138.0</ele><time>2026-04-12T12:26:40.961Z</time></trkpt><trkpt lat="41.1594518" lon="1.0868327"><ele>138.0</ele><time>2026-04-12T12:26:41.96Z</time></trkpt><trkpt lat="41.1594303" lon="1.0869315"><ele>138.0</ele><time>2026-04-12T12:26:42.961Z</time></trkpt><trkpt lat="41.1594043" lon="1.0870354"><ele>138.0</ele><time>2026-04-12T12:26:43.96Z</time></trkpt><trkpt lat="41.1593837" lon="1.0871386"><ele>138.0</ele><time>2026-04-12T12:26:44.961Z</time></trkpt><trkpt lat="41.1593478" lon="1.0872399"><ele>138.0</ele><time>2026-04-12T12:26:45.96Z</time></trkpt><trkpt lat="41.159317" lon="1.0873432"><ele>137.66666666666666</ele><time>2026-04-12T12:26:46.961Z</time></trkpt><trkpt lat="41.1592936" lon="1.0874458"><ele>137.33333333333334</ele><time>2026-04-12T12:26:47.961Z</time></trkpt><trkpt lat="41.1592501" lon="1.0875515"><ele>137.0</ele><time>2026-04-12T12:26:48.961Z</time></trkpt><trkpt lat="41.1592246" lon="1.0876502"><ele>136.66666666666669</ele><time>2026-04-12T12:26:49.96Z</time></trkpt><trkpt lat="41.1592" lon="1.0877476"><ele>136.33333333333334</ele><time>2026-04-12T12:26:50.961Z</time></trkpt><trkpt lat="41.1591726" lon="1.0878482"><ele>136.0</ele><time>2026-04-12T12:26:51.961Z</time></trkpt><trkpt lat="41.1591417" lon="1.0879523"><ele>136.0</ele><time>2026-04-12T12:26:52.96Z</time></trkpt><trkpt lat="41.1591266" lon="1.0880575"><ele>136.0</ele><time>2026-04-12T12:26:53.961Z</time></trkpt><trkpt lat="41.1590931" lon="1.08816"><ele>136.0</ele><time>2026-04-12T12:26:54.96Z</time></trkpt><trkpt lat="41.1590659" lon="1.088248"><ele>136.0</ele><time>2026-04-12T12:26:55.96Z</time></trkpt><trkpt lat="41.1590355" lon="1.0883463"><ele>136.0</ele><time>2026-04-12T12:26:56.961Z</time></trkpt><trkpt lat="41.1590225" lon="1.0884435"><ele>136.0</ele><time>2026-04-12T12:26:57.961Z</time></trkpt><trkpt lat="41.1589944" lon="1.0885382"><ele>135.99999999999997</ele><time>2026-04-12T12:26:58.96Z</time></trkpt><trkpt lat="41.1589777" lon="1.0886309"><ele>136.0</ele><time>2026-04-12T12:26:59.961Z</time></trkpt><trkpt lat="41.1589472" lon="1.0887176"><ele>136.0</ele><time>2026-04-12T12:27:00.961Z</time></trkpt><trkpt lat="41.1589286" lon="1.0888109"><ele>136.0</ele><time>2026-04-12T12:27:01.96Z</time></trkpt><trkpt lat="41.1589072" lon="1.088909"><ele>136.0</ele><time>2026-04-12T12:27:02.96Z</time></trkpt><trkpt lat="41.1588675" lon="1.089009"><ele>135.99999999999997</ele><time>2026-04-12T12:27:03.961Z</time></trkpt><trkpt lat="41.1588608" lon="1.0890997"><ele>136.0</ele><time>2026-04-12T12:27:04.96Z</time></trkpt><trkpt lat="41.1588422" lon="1.0891911"><ele>135.5</ele><time>2026-04-12T12:27:05.961Z</time></trkpt><trkpt lat="41.1588043" lon="1.0892878"><ele>135.0</ele><time>2026-04-12T12:27:06.96Z</time></trkpt><trkpt lat="41.158788" lon="1.0893889"><ele>134.5</ele><time>2026-04-12T12:27:07.961Z</time></trkpt><trkpt lat="41.1587718" lon="1.0894814"><ele>134.0</ele><time>2026-04-12T12:27:08.959Z</time></trkpt><trkpt lat="41.1587591" lon="1.089572"><ele>133.5</ele><time>2026-04-12T12:27:09.96Z</time></trkpt><trkpt lat="41.1587319" lon="1.0896676"><ele>133.0</ele><time>2026-04-12T12:27:10.961Z</time></trkpt><trkpt lat="41.158704" lon="1.0897596"><ele>133.0</ele><time>2026-04-12T12:27:11.962Z</time></trkpt><trkpt lat="41.1586816" lon="1.0898452"><ele>133.0</ele><time>2026-04-12T12:27:12.961Z</time></trkpt><trkpt lat="41.1586403" lon="1.0899413"><ele>133.0</ele><time>2026-04-12T12:27:13.96Z</time></trkpt><trkpt lat="41.1586186" lon="1.0900373"><ele>133.0</ele><time>2026-04-12T12:27:14.961Z</time></trkpt><trkpt lat="41.15859" lon="1.0901345"><ele>133.0</ele><time>2026-04-12T12:27:15.961Z</time></trkpt><trkpt lat="41.1585495" lon="1.0902399"><ele>133.0</ele><time>2026-04-12T12:27:16.961Z</time></trkpt><trkpt lat="41.1585255" lon="1.0903393"><ele>133.0</ele><time>2026-04-12T12:27:17.96Z</time></trkpt><trkpt lat="41.1584991" lon="1.0904246"><ele>133.0</ele><time>2026-04-12T12:27:18.959Z</time></trkpt><trkpt lat="41.1584749" lon="1.0905135"><ele>133.0</ele><time>2026-04-12T12:27:19.961Z</time></trkpt><trkpt lat="41.1584426" lon="1.0906031"><ele>133.0</ele><time>2026-04-12T12:27:20.961Z</time></trkpt><trkpt lat="41.1584249" lon="1.0906945"><ele>133.0</ele><time>2026-04-12T12:27:21.96Z</time></trkpt><trkpt lat="41.1584001" lon="1.0907926"><ele>133.0</ele><time>2026-04-12T12:27:22.961Z</time></trkpt><trkpt lat="41.1583776" lon="1.090882"><ele>133.0</ele><time>2026-04-12T12:27:23.96Z</time></trkpt><trkpt lat="41.1583697" lon="1.0909752"><ele>133.14285714285714</ele><time>2026-04-12T12:27:24.96Z</time></trkpt><trkpt lat="41.1583499" lon="1.0910665"><ele>133.28571428571428</ele><time>2026-04-12T12:27:25.961Z</time></trkpt><trkpt lat="41.1583269" lon="1.0911568"><ele>133.42857142857144</ele><time>2026-04-12T12:27:26.961Z</time></trkpt><trkpt lat="41.1583065" lon="1.0912493"><ele>133.57142857142856</ele><time>2026-04-12T12:27:27.961Z</time></trkpt><trkpt lat="41.1582847" lon="1.0913416"><ele>133.71428571428572</ele><time>2026-04-12T12:27:28.961Z</time></trkpt><trkpt lat="41.1582555" lon="1.0914357"><ele>133.85714285714286</ele><time>2026-04-12T12:27:29.962Z</time></trkpt><trkpt lat="41.1582406" lon="1.091532"><ele>134.0</ele><time>2026-04-12T12:27:30.961Z</time></trkpt><trkpt lat="41.158221" lon="1.0916309"><ele>133.83333333333331</ele><time>2026-04-12T12:27:31.96Z</time></trkpt><trkpt lat="41.1581972" lon="1.0917235"><ele>133.66666666666666</ele><time>2026-04-12T12:27:32.961Z</time></trkpt><trkpt lat="41.158168" lon="1.0918191"><ele>133.5</ele><time>2026-04-12T12:27:33.96Z</time></trkpt><trkpt lat="41.1581389" lon="1.0919223"><ele>133.33333333333334</ele><time>2026-04-12T12:27:34.961Z</time></trkpt><trkpt lat="41.1581167" lon="1.0920204"><ele>133.16666666666669</ele><time>2026-04-12T12:27:35.961Z</time></trkpt><trkpt lat="41.1580819" lon="1.0921156"><ele>133.0</ele><time>2026-04-12T12:27:36.96Z</time></trkpt><trkpt lat="41.1580491" lon="1.0922138"><ele>133.0</ele><time>2026-04-12T12:27:37.96Z</time></trkpt><trkpt lat="41.1580251" lon="1.0923134"><ele>133.0</ele><time>2026-04-12T12:27:38.961Z</time></trkpt><trkpt lat="41.1579977" lon="1.0924234"><ele>133.0</ele><time>2026-04-12T12:27:39.96Z</time></trkpt><trkpt lat="41.1579724" lon="1.0925278"><ele>133.0</ele><time>2026-04-12T12:27:40.96Z</time></trkpt><trkpt lat="41.1579487" lon="1.0926317"><ele>133.0</ele><time>2026-04-12T12:27:41.96Z</time></trkpt><trkpt lat="41.157923" lon="1.0927351"><ele>133.0</ele><time>2026-04-12T12:27:42.961Z</time></trkpt><trkpt lat="41.1578956" lon="1.0928389"><ele>133.0</ele><time>2026-04-12T12:27:43.961Z</time></trkpt><trkpt lat="41.1578782" lon="1.0929362"><ele>133.0</ele><time>2026-04-12T12:27:44.96Z</time></trkpt><trkpt lat="41.157851" lon="1.0930353"><ele>133.0</ele><time>2026-04-12T12:27:45.961Z</time></trkpt><trkpt lat="41.1578269" lon="1.0931409"><ele>133.0</ele><time>2026-04-12T12:27:46.96Z</time></trkpt><trkpt lat="41.1578015" lon="1.0932448"><ele>133.0</ele><time>2026-04-12T12:27:47.96Z</time></trkpt><trkpt lat="41.1577721" lon="1.0933457"><ele>133.0</ele><time>2026-04-12T12:27:48.96Z</time></trkpt><trkpt lat="41.1577499" lon="1.0934437"><ele>133.0</ele><time>2026-04-12T12:27:49.962Z</time></trkpt><trkpt lat="41.157723" lon="1.093543"><ele>133.0</ele><time>2026-04-12T12:27:50.96Z</time></trkpt><trkpt lat="41.1576973" lon="1.0936395"><ele>133.0</ele><time>2026-04-12T12:27:51.961Z</time></trkpt><trkpt lat="41.1576751" lon="1.0937366"><ele>133.0</ele><time>2026-04-12T12:27:52.961Z</time></trkpt><trkpt lat="41.1576486" lon="1.0938337"><ele>133.0</ele><time>2026-04-12T12:27:53.961Z</time></trkpt><trkpt lat="41.1576181" lon="1.0939307"><ele>133.0</ele><time>2026-04-12T12:27:54.96Z</time></trkpt><trkpt lat="41.1575965" lon="1.0940239"><ele>132.83333333333334</ele><time>2026-04-12T12:27:55.962Z</time></trkpt><trkpt lat="41.1575697" lon="1.0941199"><ele>132.66666666666669</ele><time>2026-04-12T12:27:56.961Z</time></trkpt><trkpt lat="41.1575477" lon="1.0942187"><ele>132.5</ele><time>2026-04-12T12:27:57.96Z</time></trkpt><trkpt lat="41.1575474" lon="1.0943196"><ele>132.33333333333334</ele><time>2026-04-12T12:27:58.96Z</time></trkpt><trkpt lat="41.157509" lon="1.0944226"><ele>132.16666666666666</ele><time>2026-04-12T12:27:59.96Z</time></trkpt><trkpt lat="41.1574904" lon="1.0945252"><ele>132.0</ele><time>2026-04-12T12:28:00.96Z</time></trkpt><trkpt lat="41.1574625" lon="1.0946275"><ele>132.0</ele><time>2026-04-12T12:28:01.961Z</time></trkpt><trkpt lat="41.157435" lon="1.0947288"><ele>132.0</ele><time>2026-04-12T12:28:02.96Z</time></trkpt><trkpt lat="41.1574034" lon="1.0948269"><ele>132.0</ele><time>2026-04-12T12:28:03.96Z</time></trkpt><trkpt lat="41.1573794" lon="1.0949248"><ele>132.0</ele><time>2026-04-12T12:28:04.96Z</time></trkpt><trkpt lat="41.1573497" lon="1.0950279"><ele>132.0</ele><time>2026-04-12T12:28:05.96Z</time></trkpt><trkpt lat="41.1573265" lon="1.095128"><ele>132.0</ele><time>2026-04-12T12:28:06.961Z</time></trkpt><trkpt lat="41.1573095" lon="1.0952238"><ele>131.5</ele><time>2026-04-12T12:28:07.96Z</time></trkpt><trkpt lat="41.1572751" lon="1.0953142"><ele>131.0</ele><time>2026-04-12T12:28:08.96Z</time></trkpt><trkpt lat="41.1572539" lon="1.0954178"><ele>130.5</ele><time>2026-04-12T12:28:09.959Z</time></trkpt><trkpt lat="41.1572313" lon="1.0955096"><ele>130.0</ele><time>2026-04-12T12:28:10.96Z</time></trkpt><trkpt lat="41.1572028" lon="1.0955995"><ele>129.5</ele><time>2026-04-12T12:28:11.962Z</time></trkpt><trkpt lat="41.1571797" lon="1.0956948"><ele>129.0</ele><time>2026-04-12T12:28:12.96Z</time></trkpt><trkpt lat="41.1571365" lon="1.095872"><ele>128.83333333333334</ele><time>2026-04-12T12:28:14.96Z</time></trkpt><trkpt lat="41.1571108" lon="1.0959526"><ele>128.66666666666666</ele><time>2026-04-12T12:28:15.961Z</time></trkpt><trkpt lat="41.157013" lon="1.0960738"><ele>128.5</ele><time>2026-04-12T12:28:17.96Z</time></trkpt><trkpt lat="41.1569553" lon="1.0961304"><ele>128.33333333333331</ele><time>2026-04-12T12:28:18.961Z</time></trkpt><trkpt lat="41.1569164" lon="1.0961999"><ele>128.16666666666666</ele><time>2026-04-12T12:28:19.961Z</time></trkpt><trkpt lat="41.1568766" lon="1.0962849"><ele>128.0</ele><time>2026-04-12T12:28:20.961Z</time></trkpt><trkpt lat="41.1568503" lon="1.0963739"><ele>128.0</ele><time>2026-04-12T12:28:21.962Z</time></trkpt><trkpt lat="41.1568292" lon="1.0964572"><ele>128.0</ele><time>2026-04-12T12:28:22.961Z</time></trkpt><trkpt lat="41.1568451" lon="1.0965384"><ele>128.0</ele><time>2026-04-12T12:28:23.961Z</time></trkpt><trkpt lat="41.1568687" lon="1.0966197"><ele>128.0</ele><time>2026-04-12T12:28:24.96Z</time></trkpt><trkpt lat="41.1568941" lon="1.0968021"><ele>128.0</ele><time>2026-04-12T12:28:26.959Z</time></trkpt><trkpt lat="41.1568806" lon="1.0969601"><ele>128.4</ele><time>2026-04-12T12:28:28.96Z</time></trkpt><trkpt lat="41.1568931" lon="1.0970423"><ele>128.8</ele><time>2026-04-12T12:28:29.961Z</time></trkpt><trkpt lat="41.1569037" lon="1.097216"><ele>129.2</ele><time>2026-04-12T12:28:31.961Z</time></trkpt><trkpt lat="41.1568979" lon="1.0973156"><ele>129.6</ele><time>2026-04-12T12:28:32.961Z</time></trkpt><trkpt lat="41.1568575" lon="1.0974787"><ele>130.0</ele><time>2026-04-12T12:28:34.96Z</time></trkpt><trkpt lat="41.1568167" lon="1.0975535"><ele>131.5</ele><time>2026-04-12T12:28:35.961Z</time></trkpt><trkpt lat="41.1567994" lon="1.0977257"><ele>133.0</ele><time>2026-04-12T12:28:37.962Z</time></trkpt><trkpt lat="41.1567867" lon="1.0978963"><ele>134.5</ele><time>2026-04-12T12:28:39.96Z</time></trkpt><trkpt lat="41.1567398" lon="1.0979712"><ele>136.0</ele><time>2026-04-12T12:28:40.96Z</time></trkpt><trkpt lat="41.1567399" lon="1.0981282"><ele>136.0</ele><time>2026-04-12T12:28:42.96Z</time></trkpt><trkpt lat="41.1567102" lon="1.0982848"><ele>136.0</ele><time>2026-04-12T12:28:44.961Z</time></trkpt><trkpt lat="41.1566812" lon="1.0983625"><ele>136.0</ele><time>2026-04-12T12:28:45.961Z</time></trkpt><trkpt lat="41.1566219" lon="1.0984252"><ele>136.0</ele><time>2026-04-12T12:28:46.96Z</time></trkpt><trkpt lat="41.1565645" lon="1.0985097"><ele>136.0</ele><time>2026-04-12T12:28:48.961Z</time></trkpt><trkpt lat="41.1565631" lon="1.098601"><ele>136.0</ele><time>2026-04-12T12:28:49.961Z</time></trkpt><trkpt lat="41.1565575" lon="1.0987206"><ele>136.0</ele><time>2026-04-12T12:28:51.961Z</time></trkpt><trkpt lat="41.1565611" lon="1.0988131"><ele>136.0</ele><time>2026-04-12T12:28:53.961Z</time></trkpt><trkpt lat="41.156501" lon="1.0989106"><ele>136.0</ele><time>2026-04-12T12:29:49.962Z</time></trkpt><trkpt lat="41.1564447" lon="1.0990044"><ele>136.0</ele><time>2026-04-12T12:29:53.961Z</time></trkpt><trkpt lat="41.1564033" lon="1.0990931"><ele>136.0</ele><time>2026-04-12T12:29:55.962Z</time></trkpt><trkpt lat="41.1563627" lon="1.0992007"><ele>136.0</ele><time>2026-04-12T12:29:57.962Z</time></trkpt><trkpt lat="41.1563384" lon="1.099302"><ele>135.6</ele><time>2026-04-12T12:29:59.961Z</time></trkpt><trkpt lat="41.1563363" lon="1.0994282"><ele>135.2</ele><time>2026-04-12T12:30:01.961Z</time></trkpt><trkpt lat="41.1563349" lon="1.0995525"><ele>134.8</ele><time>2026-04-12T12:30:03.961Z</time></trkpt><trkpt lat="41.1563286" lon="1.0996749"><ele>134.4</ele><time>2026-04-12T12:30:05.96Z</time></trkpt><trkpt lat="41.1563484" lon="1.0998013"><ele>134.0</ele><time>2026-04-12T12:30:07.961Z</time></trkpt><trkpt lat="41.1563395" lon="1.0999462"><ele>133.4</ele><time>2026-04-12T12:30:09.961Z</time></trkpt><trkpt lat="41.1562995" lon="1.1000711"><ele>132.8</ele><time>2026-04-12T12:30:11.964Z</time></trkpt><trkpt lat="41.1562978" lon="1.1002027"><ele>132.2</ele><time>2026-04-12T12:30:13.961Z</time></trkpt><trkpt lat="41.1563121" lon="1.1002933"><ele>131.6</ele><time>2026-04-12T12:30:14.961Z</time></trkpt><trkpt lat="41.1563098" lon="1.1004471"><ele>131.0</ele><time>2026-04-12T12:30:16.959Z</time></trkpt><trkpt lat="41.156297" lon="1.1005684"><ele>131.0</ele><time>2026-04-12T12:30:18.96Z</time></trkpt><trkpt lat="41.1562671" lon="1.1006966"><ele>131.0</ele><time>2026-04-12T12:30:20.96Z</time></trkpt><trkpt lat="41.1562587" lon="1.1008118"><ele>131.0</ele><time>2026-04-12T12:30:22.961Z</time></trkpt><trkpt lat="41.1562694" lon="1.1009502"><ele>131.0</ele><time>2026-04-12T12:30:24.96Z</time></trkpt><trkpt lat="41.1562473" lon="1.1010999"><ele>131.0</ele><time>2026-04-12T12:30:26.963Z</time></trkpt><trkpt lat="41.1562327" lon="1.1012457"><ele>131.0</ele><time>2026-04-12T12:30:28.968Z</time></trkpt><trkpt lat="41.1562507" lon="1.101339"><ele>131.0</ele><time>2026-04-12T12:30:29.961Z</time></trkpt><trkpt lat="41.1562427" lon="1.1014753"><ele>131.0</ele><time>2026-04-12T12:30:31.961Z</time></trkpt><trkpt lat="41.1562189" lon="1.1016173"><ele>131.0</ele><time>2026-04-12T12:30:33.96Z</time></trkpt><trkpt lat="41.1561916" lon="1.101696"><ele>131.0</ele><time>2026-04-12T12:30:34.961Z</time></trkpt><trkpt lat="41.1561575" lon="1.101775"><ele>131.0</ele><time>2026-04-12T12:30:35.96Z</time></trkpt><trkpt lat="41.156123" lon="1.1019122"><ele>131.0</ele><time>2026-04-12T12:30:37.961Z</time></trkpt><trkpt lat="41.1561285" lon="1.1020127"><ele>131.0</ele><time>2026-04-12T12:30:39.962Z</time></trkpt><trkpt lat="41.1561686" lon="1.1021259"><ele>131.0</ele><time>2026-04-12T12:30:41.962Z</time></trkpt><trkpt lat="41.1562009" lon="1.1022679"><ele>131.0</ele><time>2026-04-12T12:30:43.961Z</time></trkpt><trkpt lat="41.1562152" lon="1.1024032"><ele>131.0</ele><time>2026-04-12T12:30:45.962Z</time></trkpt><trkpt lat="41.156217" lon="1.1025486"><ele>131.2</ele><time>2026-04-12T12:30:47.96Z</time></trkpt><trkpt lat="41.1561987" lon="1.1026866"><ele>131.39999999999998</ele><time>2026-04-12T12:30:49.96Z</time></trkpt><trkpt lat="41.156196" lon="1.102828"><ele>131.6</ele><time>2026-04-12T12:30:51.96Z</time></trkpt><trkpt lat="41.1561956" lon="1.1029125"><ele>131.79999999999998</ele><time>2026-04-12T12:30:52.961Z</time></trkpt><trkpt lat="41.1562082" lon="1.1030712"><ele>132.0</ele><time>2026-04-12T12:30:54.962Z</time></trkpt><trkpt lat="41.1561757" lon="1.1031531"><ele>132.0</ele><time>2026-04-12T12:30:55.961Z</time></trkpt><trkpt lat="41.1561938" lon="1.1032366"><ele>132.0</ele><time>2026-04-12T12:30:56.962Z</time></trkpt><trkpt lat="41.156179" lon="1.1033204"><ele>132.0</ele><time>2026-04-12T12:30:57.961Z</time></trkpt><trkpt lat="41.1561938" lon="1.1034058"><ele>132.0</ele><time>2026-04-12T12:30:58.961Z</time></trkpt><trkpt lat="41.1562036" lon="1.103561"><ele>132.0</ele><time>2026-04-12T12:31:00.961Z</time></trkpt><trkpt lat="41.1561949" lon="1.1036473"><ele>132.0</ele><time>2026-04-12T12:31:01.96Z</time></trkpt><trkpt lat="41.1561762" lon="1.10381"><ele>132.0</ele><time>2026-04-12T12:31:03.962Z</time></trkpt><trkpt lat="41.1561749" lon="1.1039794"><ele>132.0</ele><time>2026-04-12T12:31:05.96Z</time></trkpt><trkpt lat="41.1561792" lon="1.1040758"><ele>132.0</ele><time>2026-04-12T12:31:06.96Z</time></trkpt><trkpt lat="41.1561672" lon="1.1041646"><ele>132.0</ele><time>2026-04-12T12:31:07.961Z</time></trkpt><trkpt lat="41.1561583" lon="1.104254"><ele>132.0</ele><time>2026-04-12T12:31:08.96Z</time></trkpt><trkpt lat="41.1561554" lon="1.1043901"><ele>132.0</ele><time>2026-04-12T12:31:10.96Z</time></trkpt><trkpt lat="41.1561676" lon="1.1045112"><ele>131.79999999999998</ele><time>2026-04-12T12:31:12.96Z</time></trkpt><trkpt lat="41.1560782" lon="1.1045748"><ele>131.6</ele><time>2026-04-12T12:31:15.961Z</time></trkpt><trkpt lat="41.1560081" lon="1.1045842"><ele>131.39999999999998</ele><time>2026-04-12T12:31:16.961Z</time></trkpt><trkpt lat="41.1558795" lon="1.1046251"><ele>131.2</ele><time>2026-04-12T12:31:18.961Z</time></trkpt><trkpt lat="41.1558084" lon="1.1046419"><ele>131.0</ele><time>2026-04-12T12:31:19.96Z</time></trkpt><trkpt lat="41.1556855" lon="1.1046454"><ele>130.33333333333331</ele><time>2026-04-12T12:31:21.961Z</time></trkpt><trkpt lat="41.1556091" lon="1.1046415"><ele>129.66666666666666</ele><time>2026-04-12T12:31:22.961Z</time></trkpt><trkpt lat="41.1555096" lon="1.1046617"><ele>129.0</ele><time>2026-04-12T12:31:24.96Z</time></trkpt><trkpt lat="41.1554307" lon="1.1046853"><ele>128.33333333333334</ele><time>2026-04-12T12:31:25.96Z</time></trkpt><trkpt lat="41.1553587" lon="1.1047039"><ele>127.66666666666667</ele><time>2026-04-12T12:31:26.96Z</time></trkpt><trkpt lat="41.155285" lon="1.1047041"><ele>127.0</ele><time>2026-04-12T12:31:27.961Z</time></trkpt><trkpt lat="41.1552079" lon="1.1047076"><ele>127.0</ele><time>2026-04-12T12:31:28.961Z</time></trkpt><trkpt lat="41.1550987" lon="1.1047047"><ele>126.99999999999999</ele><time>2026-04-12T12:31:30.959Z</time></trkpt><trkpt lat="41.1550189" lon="1.1047108"><ele>126.99999999999999</ele><time>2026-04-12T12:31:32.961Z</time></trkpt><trkpt lat="41.1549441" lon="1.1046805"><ele>127.0</ele><time>2026-04-12T12:31:35.962Z</time></trkpt><trkpt lat="41.1548486" lon="1.104785"><ele>127.0</ele><time>2026-04-12T12:31:44.96Z</time></trkpt><trkpt lat="41.154787" lon="1.1048986"><ele>127.0</ele><time>2026-04-12T12:31:46.961Z</time></trkpt><trkpt lat="41.1547542" lon="1.1049729"><ele>126.99999999999999</ele><time>2026-04-12T12:31:47.96Z</time></trkpt><trkpt lat="41.1546948" lon="1.1050253"><ele>126.99999999999999</ele><time>2026-04-12T12:31:49.961Z</time></trkpt><trkpt lat="41.1546403" lon="1.1051181"><ele>127.0</ele><time>2026-04-12T12:31:52.961Z</time></trkpt><trkpt lat="41.1545768" lon="1.1051666"><ele>127.0</ele><time>2026-04-12T12:31:54.961Z</time></trkpt><trkpt lat="41.1544152" lon="1.1052082"><ele>127.00000000000001</ele><time>2026-04-12T12:31:57.962Z</time></trkpt><trkpt lat="41.1543157" lon="1.1052224"><ele>127.0</ele><time>2026-04-12T12:31:59.96Z</time></trkpt><trkpt lat="41.1542548" lon="1.1053183"><ele>127.0</ele><time>2026-04-12T12:32:02.96Z</time></trkpt><trkpt lat="41.1542625" lon="1.1054015"><ele>127.0</ele><time>2026-04-12T12:32:06.961Z</time></trkpt><trkpt lat="41.1542344" lon="1.1054802"><ele>127.00000000000001</ele><time>2026-04-12T12:32:08.961Z</time></trkpt><trkpt lat="41.1541538" lon="1.1055581"><ele>127.0</ele><time>2026-04-12T12:32:10.961Z</time></trkpt><trkpt lat="41.1540654" lon="1.1056214"><ele>126.6</ele><time>2026-04-12T12:32:12.959Z</time></trkpt><trkpt lat="41.1539881" lon="1.105648"><ele>126.19999999999999</ele><time>2026-04-12T12:32:13.96Z</time></trkpt><trkpt lat="41.1538873" lon="1.1057215"><ele>125.8</ele><time>2026-04-12T12:32:15.961Z</time></trkpt><trkpt lat="41.1537968" lon="1.1057848"><ele>125.4</ele><time>2026-04-12T12:32:17.962Z</time></trkpt><trkpt lat="41.1537384" lon="1.1058696"><ele>125.0</ele><time>2026-04-12T12:32:19.961Z</time></trkpt><trkpt lat="41.1536871" lon="1.1059452"><ele>124.99999999999999</ele><time>2026-04-12T12:32:21.961Z</time></trkpt><trkpt lat="41.1535697" lon="1.1060016"><ele>125.0</ele><time>2026-04-12T12:32:24.961Z</time></trkpt><trkpt lat="41.1535112" lon="1.1060502"><ele>125.0</ele><time>2026-04-12T12:32:25.961Z</time></trkpt><trkpt lat="41.1534489" lon="1.1060808"><ele>125.0</ele><time>2026-04-12T12:32:28.961Z</time></trkpt><trkpt lat="41.1533865" lon="1.1061239"><ele>124.99999999999999</ele><time>2026-04-12T12:32:33.961Z</time></trkpt><trkpt lat="41.1533683" lon="1.1062132"><ele>125.0</ele><time>2026-04-12T12:32:37.961Z</time></trkpt><trkpt lat="41.1533816" lon="1.1062997"><ele>124.99999999999999</ele><time>2026-04-12T12:32:39.96Z</time></trkpt><trkpt lat="41.153419" lon="1.1063825"><ele>125.0</ele><time>2026-04-12T12:32:41.961Z</time></trkpt><trkpt lat="41.1534565" lon="1.1064578"><ele>125.0</ele><time>2026-04-12T12:32:43.961Z</time></trkpt><trkpt lat="41.1535076" lon="1.1065185"><ele>125.0</ele><time>2026-04-12T12:32:45.961Z</time></trkpt><trkpt lat="41.1535661" lon="1.106616"><ele>124.99999999999999</ele><time>2026-04-12T12:32:48.96Z</time></trkpt><trkpt lat="41.1536189" lon="1.1066629"><ele>125.0</ele><time>2026-04-12T12:32:50.96Z</time></trkpt><trkpt lat="41.1536724" lon="1.1067515"><ele>124.99999999999999</ele><time>2026-04-12T12:32:53.96Z</time></trkpt><trkpt lat="41.1537182" lon="1.1068268"><ele>125.0</ele><time>2026-04-12T12:32:56.96Z</time></trkpt><trkpt lat="41.1537586" lon="1.1069199"><ele>125.0</ele><time>2026-04-12T12:32:59.96Z</time></trkpt><trkpt lat="41.1538192" lon="1.1070078"><ele>125.0</ele><time>2026-04-12T12:33:02.961Z</time></trkpt><trkpt lat="41.1538497" lon="1.1071079"><ele>124.99999999999999</ele><time>2026-04-12T12:33:05.961Z</time></trkpt><trkpt lat="41.1538768" lon="1.1072127"><ele>125.0</ele><time>2026-04-12T12:33:08.96Z</time></trkpt><trkpt lat="41.1539269" lon="1.1072993"><ele>124.99999999999999</ele><time>2026-04-12T12:33:11.961Z</time></trkpt><trkpt lat="41.154014" lon="1.1073588"><ele>125.0</ele><time>2026-04-12T12:33:14.96Z</time></trkpt><trkpt lat="41.153964" lon="1.1074326"><ele>125.0</ele><time>2026-04-12T12:33:15.961Z</time></trkpt><trkpt lat="41.1539177" lon="1.1075022"><ele>125.0</ele><time>2026-04-12T12:33:17.961Z</time></trkpt><trkpt lat="41.1538631" lon="1.1075853"><ele>124.99999999999999</ele><time>2026-04-12T12:33:19.961Z</time></trkpt><trkpt lat="41.1537807" lon="1.1076734"><ele>125.0</ele><time>2026-04-12T12:33:21.961Z</time></trkpt><trkpt lat="41.1537041" lon="1.1077674"><ele>124.75</ele><time>2026-04-12T12:33:23.961Z</time></trkpt><trkpt lat="41.1536243" lon="1.1078776"><ele>124.5</ele><time>2026-04-12T12:33:25.961Z</time></trkpt><trkpt lat="41.1535335" lon="1.1079815"><ele>124.25</ele><time>2026-04-12T12:33:27.96Z</time></trkpt><trkpt lat="41.1534344" lon="1.1080721"><ele>124.0</ele><time>2026-04-12T12:33:29.96Z</time></trkpt><trkpt lat="41.1533428" lon="1.108169"><ele>124.0</ele><time>2026-04-12T12:33:31.96Z</time></trkpt><trkpt lat="41.1532469" lon="1.1082618"><ele>124.0</ele><time>2026-04-12T12:33:33.961Z</time></trkpt><trkpt lat="41.1531892" lon="1.1083111"><ele>124.0</ele><time>2026-04-12T12:33:34.961Z</time></trkpt><trkpt lat="41.1530796" lon="1.1084012"><ele>124.0</ele><time>2026-04-12T12:33:36.96Z</time></trkpt><trkpt lat="41.1530284" lon="1.1084554"><ele>124.0</ele><time>2026-04-12T12:33:37.961Z</time></trkpt><trkpt lat="41.1529734" lon="1.1085087"><ele>123.4</ele><time>2026-04-12T12:33:38.96Z</time></trkpt><trkpt lat="41.152874" lon="1.1086004"><ele>122.80000000000001</ele><time>2026-04-12T12:33:40.961Z</time></trkpt><trkpt lat="41.152781" lon="1.1086855"><ele>122.19999999999999</ele><time>2026-04-12T12:33:42.96Z</time></trkpt><trkpt lat="41.1527814" lon="1.1088141"><ele>121.6</ele><time>2026-04-12T12:33:46.96Z</time></trkpt><trkpt lat="41.1528053" lon="1.1089114"><ele>121.0</ele><time>2026-04-12T12:33:48.96Z</time></trkpt><trkpt lat="41.1527734" lon="1.1090368"><ele>120.6</ele><time>2026-04-12T12:33:53.961Z</time></trkpt><trkpt lat="41.1526679" lon="1.1091371"><ele>120.19999999999999</ele><time>2026-04-12T12:33:54.961Z</time></trkpt><trkpt lat="41.1525994" lon="1.1091713"><ele>119.80000000000001</ele><time>2026-04-12T12:33:55.961Z</time></trkpt><trkpt lat="41.1525243" lon="1.1092045"><ele>119.4</ele><time>2026-04-12T12:33:56.96Z</time></trkpt><trkpt lat="41.1524435" lon="1.1092748"><ele>119.0</ele><time>2026-04-12T12:33:58.961Z</time></trkpt><trkpt lat="41.1523718" lon="1.1093093"><ele>118.71428571428572</ele><time>2026-04-12T12:34:00.96Z</time></trkpt><trkpt lat="41.1523138" lon="1.1093843"><ele>118.42857142857143</ele><time>2026-04-12T12:34:03.96Z</time></trkpt><trkpt lat="41.15226" lon="1.1094391"><ele>118.14285714285714</ele><time>2026-04-12T12:34:05.961Z</time></trkpt><trkpt lat="41.1521861" lon="1.1093803"><ele>117.85714285714286</ele><time>2026-04-12T12:34:07.961Z</time></trkpt><trkpt lat="41.1521294" lon="1.1093213"><ele>117.57142857142858</ele><time>2026-04-12T12:34:09.961Z</time></trkpt><trkpt lat="41.1520739" lon="1.1092768"><ele>117.28571428571429</ele><time>2026-04-12T12:34:11.96Z</time></trkpt><trkpt lat="41.1520058" lon="1.1092832"><ele>117.0</ele><time>2026-04-12T12:34:13.961Z</time></trkpt><trkpt lat="41.1519411" lon="1.1093259"><ele>117.0</ele><time>2026-04-12T12:34:15.96Z</time></trkpt><trkpt lat="41.1518849" lon="1.1094015"><ele>117.0</ele><time>2026-04-12T12:34:17.961Z</time></trkpt><trkpt lat="41.1518238" lon="1.1094744"><ele>117.0</ele><time>2026-04-12T12:34:19.96Z</time></trkpt><trkpt lat="41.151779" lon="1.1095524"><ele>117.0</ele><time>2026-04-12T12:34:21.96Z</time></trkpt><trkpt lat="41.1517107" lon="1.1095868"><ele>117.0</ele><time>2026-04-12T12:34:23.96Z</time></trkpt><trkpt lat="41.151622" lon="1.1095752"><ele>117.0</ele><time>2026-04-12T12:34:25.96Z</time></trkpt><trkpt lat="41.1515513" lon="1.1095794"><ele>117.16666666666667</ele><time>2026-04-12T12:34:27.96Z</time></trkpt><trkpt lat="41.1514843" lon="1.1096111"><ele>117.33333333333334</ele><time>2026-04-12T12:34:29.96Z</time></trkpt><trkpt lat="41.1514144" lon="1.109673"><ele>117.5</ele><time>2026-04-12T12:34:31.961Z</time></trkpt><trkpt lat="41.1513254" lon="1.1097341"><ele>117.66666666666667</ele><time>2026-04-12T12:34:33.961Z</time></trkpt><trkpt lat="41.1512559" lon="1.109815"><ele>117.83333333333334</ele><time>2026-04-12T12:34:35.961Z</time></trkpt><trkpt lat="41.1511892" lon="1.1099011"><ele>118.0</ele><time>2026-04-12T12:34:37.962Z</time></trkpt><trkpt lat="41.1511345" lon="1.1099891"><ele>118.0</ele><time>2026-04-12T12:34:39.96Z</time></trkpt><trkpt lat="41.1510667" lon="1.1100768"><ele>118.0</ele><time>2026-04-12T12:34:41.961Z</time></trkpt><trkpt lat="41.1509899" lon="1.110201"><ele>118.0</ele><time>2026-04-12T12:34:43.961Z</time></trkpt><trkpt lat="41.1509143" lon="1.1103165"><ele>118.0</ele><time>2026-04-12T12:34:45.961Z</time></trkpt><trkpt lat="41.1508316" lon="1.1104416"><ele>118.0</ele><time>2026-04-12T12:34:47.961Z</time></trkpt><trkpt lat="41.1507338" lon="1.110542"><ele>118.00000000000001</ele><time>2026-04-12T12:34:49.961Z</time></trkpt><trkpt lat="41.1506505" lon="1.1106117"><ele>118.00000000000001</ele><time>2026-04-12T12:34:51.961Z</time></trkpt><trkpt lat="41.150589" lon="1.1106948"><ele>118.0</ele><time>2026-04-12T12:34:53.961Z</time></trkpt><trkpt lat="41.1505125" lon="1.1107839"><ele>118.0</ele><time>2026-04-12T12:34:55.961Z</time></trkpt><trkpt lat="41.1504282" lon="1.1108451"><ele>118.00000000000001</ele><time>2026-04-12T12:34:57.96Z</time></trkpt><trkpt lat="41.150353" lon="1.110879"><ele>118.0</ele><time>2026-04-12T12:34:59.961Z</time></trkpt><trkpt lat="41.1502609" lon="1.110938"><ele>118.0</ele><time>2026-04-12T12:35:02.961Z</time></trkpt><trkpt lat="41.1501676" lon="1.1109844"><ele>118.0</ele><time>2026-04-12T12:35:04.96Z</time></trkpt><trkpt lat="41.1500999" lon="1.1110049"><ele>118.00000000000001</ele><time>2026-04-12T12:35:05.961Z</time></trkpt><trkpt lat="41.150015" lon="1.1110455"><ele>118.0</ele><time>2026-04-12T12:35:07.96Z</time></trkpt><trkpt lat="41.1499172" lon="1.1111005"><ele>116.25</ele><time>2026-04-12T12:35:09.96Z</time></trkpt><trkpt lat="41.1498157" lon="1.1111547"><ele>114.5</ele><time>2026-04-12T12:35:11.961Z</time></trkpt><trkpt lat="41.149715" lon="1.1112119"><ele>112.75</ele><time>2026-04-12T12:35:13.961Z</time></trkpt><trkpt lat="41.1496017" lon="1.1112688"><ele>111.0</ele><time>2026-04-12T12:35:15.961Z</time></trkpt><trkpt lat="41.1494858" lon="1.1113381"><ele>111.0</ele><time>2026-04-12T12:35:17.96Z</time></trkpt><trkpt lat="41.149428" lon="1.1113723"><ele>111.0</ele><time>2026-04-12T12:35:18.961Z</time></trkpt><trkpt lat="41.1493695" lon="1.1114117"><ele>111.0</ele><time>2026-04-12T12:35:19.961Z</time></trkpt><trkpt lat="41.1492565" lon="1.1114726"><ele>111.0</ele><time>2026-04-12T12:35:21.961Z</time></trkpt><trkpt lat="41.1491512" lon="1.1115423"><ele>111.0</ele><time>2026-04-12T12:35:23.962Z</time></trkpt><trkpt lat="41.1490599" lon="1.1116046"><ele>109.5</ele><time>2026-04-12T12:35:25.96Z</time></trkpt><trkpt lat="41.1489709" lon="1.1116611"><ele>108.0</ele><time>2026-04-12T12:35:27.961Z</time></trkpt><trkpt lat="41.1489113" lon="1.111693"><ele>106.5</ele><time>2026-04-12T12:35:28.961Z</time></trkpt><trkpt lat="41.1488224" lon="1.1117524"><ele>105.0</ele><time>2026-04-12T12:35:30.961Z</time></trkpt><trkpt lat="41.148754" lon="1.1118352"><ele>103.5</ele><time>2026-04-12T12:35:32.961Z</time></trkpt><trkpt lat="41.1486711" lon="1.1118823"><ele>102.0</ele><time>2026-04-12T12:35:34.962Z</time></trkpt><trkpt lat="41.1486052" lon="1.1119126"><ele>102.0</ele><time>2026-04-12T12:35:35.96Z</time></trkpt><trkpt lat="41.1484717" lon="1.1119601"><ele>102.0</ele><time>2026-04-12T12:35:37.961Z</time></trkpt><trkpt lat="41.1484083" lon="1.1119885"><ele>102.0</ele><time>2026-04-12T12:35:38.96Z</time></trkpt><trkpt lat="41.1482863" lon="1.1120542"><ele>102.0</ele><time>2026-04-12T12:35:40.961Z</time></trkpt><trkpt lat="41.1482302" lon="1.112093"><ele>102.0</ele><time>2026-04-12T12:35:41.961Z</time></trkpt><trkpt lat="41.1481198" lon="1.1121612"><ele>101.83333333333333</ele><time>2026-04-12T12:35:43.959Z</time></trkpt><trkpt lat="41.148019" lon="1.1122098"><ele>101.66666666666666</ele><time>2026-04-12T12:35:45.96Z</time></trkpt><trkpt lat="41.1479337" lon="1.1122385"><ele>101.5</ele><time>2026-04-12T12:35:47.961Z</time></trkpt><trkpt lat="41.1478491" lon="1.1122853"><ele>101.33333333333333</ele><time>2026-04-12T12:35:49.961Z</time></trkpt><trkpt lat="41.1478174" lon="1.112373"><ele>101.16666666666666</ele><time>2026-04-12T12:35:52.962Z</time></trkpt><trkpt lat="41.1477773" lon="1.1124615"><ele>101.0</ele><time>2026-04-12T12:35:55.962Z</time></trkpt><trkpt lat="41.1476859" lon="1.1125104"><ele>101.0</ele><time>2026-04-12T12:35:58.962Z</time></trkpt><trkpt lat="41.147583" lon="1.1124942"><ele>101.0</ele><time>2026-04-12T12:36:00.96Z</time></trkpt><trkpt lat="41.1474845" lon="1.1124864"><ele>101.0</ele><time>2026-04-12T12:36:02.962Z</time></trkpt><trkpt lat="41.1473912" lon="1.1125012"><ele>101.0</ele><time>2026-04-12T12:36:04.961Z</time></trkpt><trkpt lat="41.1472792" lon="1.1125214"><ele>101.0</ele><time>2026-04-12T12:36:06.962Z</time></trkpt><trkpt lat="41.1471617" lon="1.1125089"><ele>101.16666666666666</ele><time>2026-04-12T12:36:08.961Z</time></trkpt><trkpt lat="41.1470962" lon="1.1125045"><ele>101.33333333333333</ele><time>2026-04-12T12:36:09.96Z</time></trkpt><trkpt lat="41.1469967" lon="1.1125412"><ele>101.5</ele><time>2026-04-12T12:36:11.96Z</time></trkpt><trkpt lat="41.1469274" lon="1.1125639"><ele>101.66666666666666</ele><time>2026-04-12T12:36:12.962Z</time></trkpt><trkpt lat="41.1468425" lon="1.1126411"><ele>101.83333333333333</ele><time>2026-04-12T12:36:14.961Z</time></trkpt><trkpt lat="41.1467799" lon="1.1126698"><ele>102.0</ele><time>2026-04-12T12:36:15.961Z</time></trkpt><trkpt lat="41.1466718" lon="1.1127172"><ele>102.0</ele><time>2026-04-12T12:36:17.961Z</time></trkpt><trkpt lat="41.1466101" lon="1.112744"><ele>102.0</ele><time>2026-04-12T12:36:18.962Z</time></trkpt><trkpt lat="41.1464988" lon="1.1127895"><ele>102.0</ele><time>2026-04-12T12:36:20.962Z</time></trkpt><trkpt lat="41.1463715" lon="1.112821"><ele>102.0</ele><time>2026-04-12T12:36:22.96Z</time></trkpt><trkpt lat="41.146308" lon="1.1128317"><ele>102.0</ele><time>2026-04-12T12:36:23.96Z</time></trkpt><trkpt lat="41.1462407" lon="1.112811"><ele>102.0</ele><time>2026-04-12T12:36:24.961Z</time></trkpt><trkpt lat="41.1461366" lon="1.1128107"><ele>101.75</ele><time>2026-04-12T12:36:26.962Z</time></trkpt><trkpt lat="41.1460204" lon="1.1128476"><ele>101.5</ele><time>2026-04-12T12:36:28.962Z</time></trkpt><trkpt lat="41.1459176" lon="1.1129117"><ele>101.25</ele><time>2026-04-12T12:36:30.962Z</time></trkpt><trkpt lat="41.1458164" lon="1.1129935"><ele>101.0</ele><time>2026-04-12T12:36:32.961Z</time></trkpt><trkpt lat="41.1457254" lon="1.1130758"><ele>100.6</ele><time>2026-04-12T12:36:34.96Z</time></trkpt><trkpt lat="41.1456353" lon="1.1131461"><ele>100.19999999999999</ele><time>2026-04-12T12:36:36.961Z</time></trkpt><trkpt lat="41.1455396" lon="1.1132264"><ele>99.80000000000001</ele><time>2026-04-12T12:36:38.961Z</time></trkpt><trkpt lat="41.1454541" lon="1.1133178"><ele>99.4</ele><time>2026-04-12T12:36:40.962Z</time></trkpt><trkpt lat="41.145361" lon="1.1133887"><ele>99.0</ele><time>2026-04-12T12:36:42.96Z</time></trkpt><trkpt lat="41.1452835" lon="1.1134622"><ele>99.0</ele><time>2026-04-12T12:36:44.961Z</time></trkpt><trkpt lat="41.1451863" lon="1.113532"><ele>99.0</ele><time>2026-04-12T12:36:46.96Z</time></trkpt><trkpt lat="41.145089" lon="1.1135954"><ele>99.0</ele><time>2026-04-12T12:36:48.961Z</time></trkpt><trkpt lat="41.1449974" lon="1.1136517"><ele>99.0</ele><time>2026-04-12T12:36:50.961Z</time></trkpt><trkpt lat="41.1449124" lon="1.1137091"><ele>99.0</ele><time>2026-04-12T12:36:52.962Z</time></trkpt><trkpt lat="41.1448452" lon="1.1137565"><ele>99.5</ele><time>2026-04-12T12:36:54.96Z</time></trkpt><trkpt lat="41.1447706" lon="1.1138376"><ele>100.0</ele><time>2026-04-12T12:36:56.961Z</time></trkpt><trkpt lat="41.1446974" lon="1.1139022"><ele>100.5</ele><time>2026-04-12T12:36:58.961Z</time></trkpt><trkpt lat="41.1446211" lon="1.1139529"><ele>101.0</ele><time>2026-04-12T12:37:00.96Z</time></trkpt><trkpt lat="41.1445509" lon="1.1140127"><ele>101.5</ele><time>2026-04-12T12:37:02.961Z</time></trkpt><trkpt lat="41.1444909" lon="1.1140572"><ele>102.0</ele><time>2026-04-12T12:37:04.962Z</time></trkpt><trkpt lat="41.1445367" lon="1.113989"><ele>102.0</ele><time>2026-04-12T12:37:11.961Z</time></trkpt><trkpt lat="41.1445841" lon="1.1139338"><ele>102.0</ele><time>2026-04-12T12:37:13.961Z</time></trkpt><trkpt lat="41.1446365" lon="1.1138746"><ele>102.0</ele><time>2026-04-12T12:37:15.962Z</time></trkpt><trkpt lat="41.1447007" lon="1.1138219"><ele>102.0</ele><time>2026-04-12T12:37:17.961Z</time></trkpt><trkpt lat="41.1447584" lon="1.1137716"><ele>102.0</ele><time>2026-04-12T12:37:19.962Z</time></trkpt><trkpt lat="41.1448061" lon="1.1137106"><ele>102.0</ele><time>2026-04-12T12:37:21.962Z</time></trkpt><trkpt lat="41.144855" lon="1.1136573"><ele>102.0</ele><time>2026-04-12T12:37:23.962Z</time></trkpt><trkpt lat="41.1449439" lon="1.1136502"><ele>101.5</ele><time>2026-04-12T12:37:26.962Z</time></trkpt><trkpt lat="41.1449936" lon="1.1137154"><ele>101.0</ele><time>2026-04-12T12:37:28.96Z</time></trkpt><trkpt lat="41.1450342" lon="1.1138104"><ele>100.5</ele><time>2026-04-12T12:37:30.961Z</time></trkpt><trkpt lat="41.1450836" lon="1.113925"><ele>100.0</ele><time>2026-04-12T12:37:32.96Z</time></trkpt><trkpt lat="41.1451345" lon="1.1140205"><ele>99.5</ele><time>2026-04-12T12:37:34.963Z</time></trkpt><trkpt lat="41.145181" lon="1.1141298"><ele>99.0</ele><time>2026-04-12T12:37:36.961Z</time></trkpt><trkpt lat="41.145222" lon="1.1142223"><ele>98.33333333333333</ele><time>2026-04-12T12:37:38.961Z</time></trkpt><trkpt lat="41.1452662" lon="1.1143143"><ele>97.66666666666667</ele><time>2026-04-12T12:37:40.961Z</time></trkpt><trkpt lat="41.145311" lon="1.114411"><ele>97.0</ele><time>2026-04-12T12:37:42.962Z</time></trkpt><trkpt lat="41.1453673" lon="1.1144963"><ele>96.33333333333334</ele><time>2026-04-12T12:37:44.962Z</time></trkpt><trkpt lat="41.1454192" lon="1.1145961"><ele>95.66666666666667</ele><time>2026-04-12T12:37:46.96Z</time></trkpt><trkpt lat="41.1454556" lon="1.1146992"><ele>95.0</ele><time>2026-04-12T12:37:48.96Z</time></trkpt><trkpt lat="41.1454802" lon="1.1147941"><ele>95.0</ele><time>2026-04-12T12:37:50.961Z</time></trkpt><trkpt lat="41.1455314" lon="1.1148531"><ele>95.0</ele><time>2026-04-12T12:37:59.961Z</time></trkpt><trkpt lat="41.1454995" lon="1.1147627"><ele>95.0</ele><time>2026-04-12T12:38:08.961Z</time></trkpt><trkpt lat="41.1454435" lon="1.1146601"><ele>95.0</ele><time>2026-04-12T12:38:11.961Z</time></trkpt><trkpt lat="41.1454031" lon="1.1145743"><ele>95.0</ele><time>2026-04-12T12:38:13.961Z</time></trkpt><trkpt lat="41.145352" lon="1.1144846"><ele>95.0</ele><time>2026-04-12T12:38:15.961Z</time></trkpt><trkpt lat="41.1453052" lon="1.1144028"><ele>95.0</ele><time>2026-04-12T12:38:17.96Z</time></trkpt><trkpt lat="41.1452577" lon="1.11433"><ele>95.0</ele><time>2026-04-12T12:38:19.96Z</time></trkpt><trkpt lat="41.145215" lon="1.1142468"><ele>95.0</ele><time>2026-04-12T12:38:21.961Z</time></trkpt><trkpt lat="41.1451727" lon="1.1141654"><ele>95.0</ele><time>2026-04-12T12:38:23.96Z</time></trkpt><trkpt lat="41.145114" lon="1.1141225"><ele>95.0</ele><time>2026-04-12T12:38:25.961Z</time></trkpt><trkpt lat="41.145053" lon="1.1141449"><ele>95.0</ele><time>2026-04-12T12:38:27.961Z</time></trkpt><trkpt lat="41.1449845" lon="1.1141687"><ele>95.0</ele><time>2026-04-12T12:38:30.96Z</time></trkpt><trkpt lat="41.1450261" lon="1.1142937"><ele>95.0</ele><time>2026-04-12T12:39:56.556Z</time></trkpt><trkpt lat="41.1449604" lon="1.1142767"><ele>95.0</ele><time>2026-04-12T12:41:15.931Z</time></trkpt><trkpt lat="41.1450234" lon="1.1142847"><ele>95.0</ele><time>2026-04-12T12:41:52.874Z</time></trkpt><trkpt lat="41.1450554" lon="1.1143661"><ele>95.0</ele><time>2026-04-12T12:42:20.267Z</time></trkpt><trkpt lat="41.1449828" lon="1.1143379"><ele>95.0</ele><time>2026-04-12T12:42:32.408Z</time></trkpt><trkpt lat="41.1449581" lon="1.1141819"><ele>95.0</ele><time>2026-04-12T12:42:48.961Z</time></trkpt><trkpt lat="41.1450365" lon="1.1140995"><ele>95.0</ele><time>2026-04-12T12:42:51.96Z</time></trkpt><trkpt lat="41.1450967" lon="1.1140459"><ele>95.0</ele><time>2026-04-12T12:42:55.96Z</time></trkpt><trkpt lat="41.1451678" lon="1.114083"><ele>95.0</ele><time>2026-04-12T12:42:58.961Z</time></trkpt><trkpt lat="41.1452075" lon="1.1141863"><ele>95.0</ele><time>2026-04-12T12:43:01.96Z</time></trkpt><trkpt lat="41.1452407" lon="1.1142709"><ele>95.0</ele><time>2026-04-12T12:43:04.96Z</time></trkpt><trkpt lat="41.1452925" lon="1.1143405"><ele>95.0</ele><time>2026-04-12T12:43:07.961Z</time></trkpt><trkpt lat="41.1453317" lon="1.1144356"><ele>95.0</ele><time>2026-04-12T12:43:10.961Z</time></trkpt><trkpt lat="41.1453734" lon="1.1145325"><ele>95.0</ele><time>2026-04-12T12:43:13.961Z</time></trkpt><trkpt lat="41.1454235" lon="1.1146337"><ele>95.0</ele><time>2026-04-12T12:43:16.96Z</time></trkpt></trkseg></trk></gpx>